Observation data for JA Ranch on 06/21/2019      Previous  Date  Next       Current Mesonet Observations  Soil Data  Daily Summary Page  Observations in Plain Language
KPD3 210500Z 34002KT 18/13 A2971 RMK A01 T01820130  RH  072%=      5-min Rain = 0
KPD3 210501Z 33002KT 18/13 A2971 RMK A01 T01810131  RH  073%=      5-min Rain = 0
KPD3 210502Z 34003KT 18/13 A2971 RMK A01 T01790132  RH  074%=      5-min Rain = 0
KPD3 210503Z 34003KT 18/13 A2971 RMK A01 T01780130  RH  073%=      5-min Rain = 0
KPD3 210504Z 34003KT 18/13 A2971 RMK A01 T01780131  RH  074%=      5-min Rain = 0
KPD3 210505Z 33004KT 18/13 A2971 RMK A01 T01780131  RH  074%=      5-min Rain = 0
KPD3 210506Z 34004KT 18/13 A2971 RMK A01 T01770131  RH  074%=      5-min Rain = 0
KPD3 210507Z 34004KT 18/13 A2971 RMK A01 T01760131  RH  075%=      5-min Rain = 0
KPD3 210508Z 34004KT 18/13 A2971 RMK A01 T01760131  RH  075%=      5-min Rain = 0
KPD3 210509Z 34005KT 18/13 A2971 RMK A01 T01760131  RH  075%=      5-min Rain = 0
KPD3 210510Z 35004KT 18/13 A2971 RMK A01 T01750132  RH  075%=      5-min Rain = 0
KPD3 210511Z 36004KT 18/13 A2971 RMK A01 T01750131  RH  075%=      5-min Rain = 0
KPD3 210512Z 00004KT 18/13 A2971 RMK A01 T01750130  RH  075%=      5-min Rain = 0
KPD3 210513Z 00003KT 18/13 A2971 RMK A01 T01770130  RH  074%=      5-min Rain = 0
KPD3 210514Z 00003KT 18/13 A2971 RMK A01 T01770131  RH  074%=      5-min Rain = 0
KPD3 210515Z 01003KT 18/13 A2971 RMK A01 T01770131  RH  074%=      5-min Rain = 0
KPD3 210516Z 01004KT 18/13 A2971 RMK A01 T01770131  RH  075%=      5-min Rain = 0
KPD3 210517Z 01004KT 18/13 A2971 RMK A01 T01760130  RH  074%=      5-min Rain = 0
KPD3 210518Z 01004KT 18/13 A297 RMK A01 T01770129  RH  073%=      5-min Rain = 0
KPD3 210519Z 36004KT 18/13 A297 RMK A01 T01800126  RH  071%=      5-min Rain = 0
KPD3 210520Z 01003KT 19/12 A297 RMK A01 T01870124  RH  067%=      5-min Rain = 0
KPD3 210521Z 02003KT 20/12 A297 RMK A01 T01950117  RH  061%=      5-min Rain = 0
KPD3 210522Z 01002KT 20/12 A297 RMK A01 T02010119  RH  059%=      5-min Rain = 0
KPD3 210523Z 02002KT 21/12 A297 RMK A01 T02050120  RH  058%=      5-min Rain = 0
KPD3 210524Z 02003KT 21/12 A297 RMK A01 T02080117  RH  056%=      5-min Rain = 0
KPD3 210525Z 02003KT 21/12 A297 RMK A01 T02120120  RH  056%=      5-min Rain = 0
KPD3 210526Z 01003KT 21/13 A297 RMK A01 T02100127  RH  059%=      5-min Rain = 0
KPD3 210527Z 00003KT 20/13 A297 RMK A01 T02010125  RH  061%=      5-min Rain = 0
KPD3 210528Z 01002KT 19/13 A297 RMK A01 T01940126  RH  065%=      5-min Rain = 0
KPD3 210529Z 01003KT 19/13 A297 RMK A01 T01900126  RH  067%=      5-min Rain = 0
KPD3 210530Z 35003KT 19/13 A297 RMK A01 T01860126  RH  068%=      5-min Rain = 0
KPD3 210531Z 35003KT 18/12 A297 RMK A01 T01840124  RH  068%=      5-min Rain = 0
KPD3 210532Z 34004KT 18/12 A297 RMK A01 T01840124  RH  068%=      5-min Rain = 0
KPD3 210533Z 34003KT 18/13 A297 RMK A01 T01840125  RH  069%=      5-min Rain = 0
KPD3 210534Z 35002KT 18/13 A297 RMK A01 T01820125  RH  069%=      5-min Rain = 0
KPD3 210535Z 36001KT 18/13 A297 RMK A01 T01810126  RH  070%=      5-min Rain = 0
KPD3 210536Z 01001KT 18/13 A297 RMK A01 T01790126  RH  071%=      5-min Rain = 0
KPD3 210537Z 01002KT 18/13 A297 RMK A01 T01780127  RH  072%=      5-min Rain = 0
KPD3 210538Z 36002KT 18/13 A297 RMK A01 T01760127  RH  073%=      5-min Rain = 0
KPD3 210539Z 34003KT 17/13 A297 RMK A01 T01740127  RH  074%=      5-min Rain = 0
KPD3 210540Z 33004KT 17/13 A297 RMK A01 T01730127  RH  074%=      5-min Rain = 0
KPD3 210541Z 33005KT 17/13 A297 RMK A01 T01720128  RH  075%=      5-min Rain = 0
KPD3 210542Z 33006KT 17/13 A297 RMK A01 T01720127  RH  075%=      5-min Rain = 0
KPD3 210543Z 33006KT 17/13 A297 RMK A01 T01710127  RH  075%=      5-min Rain = 0
KPD3 210544Z 33005KT 17/13 A297 RMK A01 T01710127  RH  075%=      5-min Rain = 0
KPD3 210545Z 33005KT 17/13 A297 RMK A01 T01710127  RH  075%=      5-min Rain = 0
KPD3 210546Z 34004KT 17/13 A297 RMK A01 T01720127  RH  075%=      5-min Rain = 0
KPD3 210547Z 34003KT 17/13 A297 RMK A01 T01720127  RH  075%=      5-min Rain = 0
KPD3 210548Z 34003KT 17/13 A297 RMK A01 T01720127  RH  075%=      5-min Rain = 0
KPD3 210549Z 34003KT 17/13 A297 RMK A01 T01720127  RH  075%=      5-min Rain = 0
KPD3 210550Z 35003KT 17/13 A297 RMK A01 T01710127  RH  075%=      5-min Rain = 0
KPD3 210551Z 34004KT 17/13 A297 RMK A01 T01710127  RH  076%=      5-min Rain = 0
KPD3 210552Z 33004KT 17/13 A297 RMK A01 T01700128  RH  076%=      5-min Rain = 0
KPD3 210553Z 33004KT 17/13 A297 RMK A01 T01690127  RH  076%=      5-min Rain = 0
KPD3 210554Z 32006KT 17/13 A297 RMK A01 T01690126  RH  076%=      5-min Rain = 0
KPD3 210555Z 33006KT 17/13 A297 RMK A01 T01690126  RH  076%=      5-min Rain = 0
KPD3 210556Z 33005KT 17/13 A297 RMK A01 T01690127  RH  076%=      5-min Rain = 0
KPD3 210557Z 34004KT 17/13 A297 RMK A01 T01690126  RH  076%=      5-min Rain = 0
KPD3 210558Z 33005KT 17/13 A297 RMK A01 T01680127  RH  076%=      5-min Rain = 0
KPD3 210559Z 35004KT 17/13 A297 RMK A01 T01680127  RH  077%=      5-min Rain = 0
KPD3 210600Z 34005KT 17/13 A297 RMK A01 T01670127  RH  077%=      5-min Rain = 0
KPD3 210601Z 32008KT 17/13 A297 RMK A01 T01660127  RH  077%=      5-min Rain = 0
KPD3 210602Z 32008KT 17/13 A297 RMK A01 T01670127  RH  078%=      5-min Rain = 0
KPD3 210603Z 33007KT 17/13 A297 RMK A01 T01660127  RH  077%=      5-min Rain = 0
KPD3 210604Z 34006KT 17/13 A297 RMK A01 T01660126  RH  077%=      5-min Rain = 0
KPD3 210605Z 36004KT 17/13 A297 RMK A01 T01660126  RH  077%=      5-min Rain = 0
KPD3 210606Z 02003KT 17/13 A297 RMK A01 T01670126  RH  077%=      5-min Rain = 0
KPD3 210607Z 03003KT 17/13 A297 RMK A01 T01680126  RH  076%=      5-min Rain = 0
KPD3 210608Z 04003KT 17/13 A297 RMK A01 T01690125  RH  075%=      5-min Rain = 0
KPD3 210609Z 05003KT 17/13 A297 RMK A01 T01700125  RH  075%=      5-min Rain = 0
KPD3 210610Z 06003KT 17/13 A297 RMK A01 T01720126  RH  074%=      5-min Rain = 0
KPD3 210611Z 07003KT 17/13 A297 RMK A01 T01730126  RH  074%=      5-min Rain = 0
KPD3 210612Z 07002KT 17/13 A297 RMK A01 T01740126  RH  074%=      5-min Rain = 0
KPD3 210613Z 08002KT 17/13 A297 RMK A01 T01740128  RH  074%=      5-min Rain = 0
KPD3 210614Z 09003KT 17/13 A2969 RMK A01 T01740129  RH  075%=      5-min Rain = 0
KPD3 210615Z 09002KT 17/13 A297 RMK A01 T01730129  RH  075%=      5-min Rain = 0
KPD3 210616Z 10002KT 17/13 A297 RMK A01 T01730128  RH  075%=      5-min Rain = 0
KPD3 210617Z 10002KT 17/13 A297 RMK A01 T01730128  RH  075%=      5-min Rain = 0
KPD3 210618Z 10002KT 17/13 A297 RMK A01 T01720128  RH  075%=      5-min Rain = 0
KPD3 210619Z 09001KT 17/13 A297 RMK A01 T01720129  RH  076%=      5-min Rain = 0
KPD3 210620Z 36001KT 17/13 A297 RMK A01 T01690127  RH  076%=      5-min Rain = 0
KPD3 210621Z 35001KT 17/13 A297 RMK A01 T01670125  RH  076%=      5-min Rain = 0
KPD3 210622Z 33001KT 17/12 A297 RMK A01 T01690123  RH  074%=      5-min Rain = 0
KPD3 210623Z 31001KT 17/12 A297 RMK A01 T01720123  RH  073%=      5-min Rain = 0
KPD3 210624Z 31001KT 18/12 A297 RMK A01 T01750123  RH  071%=      5-min Rain = 0
KPD3 210625Z 31002KT 18/12 A297 RMK A01 T01760123  RH  071%=      5-min Rain = 0
KPD3 210626Z 31003KT 17/12 A297 RMK A01 T01740124  RH  072%=      5-min Rain = 0
KPD3 210627Z 32005KT 17/12 A297 RMK A01 T01710122  RH  073%=      5-min Rain = 0
KPD3 210628Z 32004KT 17/12 A297 RMK A01 T01700122  RH  073%=      5-min Rain = 0
KPD3 210629Z 32003KT 17/12 A297 RMK A01 T01690122  RH  074%=      5-min Rain = 0
KPD3 210630Z 33002KT 17/12 A297 RMK A01 T01690122  RH  074%=      5-min Rain = 0
KPD3 210631Z 32002KT 17/12 A297 RMK A01 T01690122  RH  074%=      5-min Rain = 0
KPD3 210632Z 33002KT 17/12 A2969 RMK A01 T01680123  RH  074%=      5-min Rain = 0
KPD3 210633Z 34001KT 17/12 A297 RMK A01 T01680122  RH  075%=      5-min Rain = 0
KPD3 210634Z 33001KT 17/12 A2969 RMK A01 T01670122  RH  075%=      5-min Rain = 0
KPD3 210635Z 34001KT 17/12 A2969 RMK A01 T01660123  RH  076%=      5-min Rain = 0
KPD3 210636Z 01001KT 16/12 A2969 RMK A01 T01640122  RH  076%=      5-min Rain = 0
KPD3 210637Z 02001KT 16/12 A2969 RMK A01 T01640122  RH  076%=      5-min Rain = 0
KPD3 210638Z 01001KT 16/12 A2969 RMK A01 T01630122  RH  077%=      5-min Rain = 0
KPD3 210639Z 03001KT 16/12 A2969 RMK A01 T01630122  RH  077%=      5-min Rain = 0
KPD3 210640Z 02001KT 16/12 A2969 RMK A01 T01620122  RH  077%=      5-min Rain = 0
KPD3 210641Z 05001KT 16/12 A2969 RMK A01 T01620122  RH  077%=      5-min Rain = 0
KPD3 210642Z 07001KT 16/12 A2969 RMK A01 T01630122  RH  076%=      5-min Rain = 0
KPD3 210643Z 07001KT 17/12 A2969 RMK A01 T01650122  RH  075%=      5-min Rain = 0
KPD3 210644Z 09001KT 17/12 A2969 RMK A01 T01670122  RH  075%=      5-min Rain = 0
KPD3 210645Z 09002KT 17/12 A2969 RMK A01 T01680123  RH  075%=      5-min Rain = 0
KPD3 210646Z 10003KT 17/12 A2969 RMK A01 T01670122  RH  074%=      5-min Rain = 0
KPD3 210647Z 10003KT 17/12 A2969 RMK A01 T01700122  RH  073%=      5-min Rain = 0
KPD3 210648Z 11003KT 17/13 A2969 RMK A01 T01710125  RH  074%=      5-min Rain = 0
KPD3 210649Z 12004KT 17/12 A2969 RMK A01 T01700123  RH  074%=      5-min Rain = 0
KPD3 210650Z 11005KT 17/12 A2969 RMK A01 T01710122  RH  073%=      5-min Rain = 0
KPD3 210651Z 12004KT 17/12 A2969 RMK A01 T01730121  RH  072%=      5-min Rain = 0
KPD3 210652Z 12004KT 17/12 A2969 RMK A01 T01730120  RH  071%=      5-min Rain = 0
KPD3 210653Z 12005KT 17/12 A2969 RMK A01 T01740120  RH  070%=      5-min Rain = 0
KPD3 210654Z 12005KT 18/12 A2969 RMK A01 T01760119  RH  069%=      5-min Rain = 0
KPD3 210655Z 12004KT 18/12 A2969 RMK A01 T01760119  RH  069%=      5-min Rain = 0
KPD3 210656Z 12004KT 18/12 A2969 RMK A01 T01750119  RH  070%=      5-min Rain = 0
KPD3 210657Z 11003KT 18/12 A2969 RMK A01 T01750120  RH  070%=      5-min Rain = 0
KPD3 210658Z 08001KT 17/12 A2969 RMK A01 T01740123  RH  072%=      5-min Rain = 0
KPD3 210659Z 33001KT 17/12 A2969 RMK A01 T01690123  RH  074%=      5-min Rain = 0
KPD3 210700Z 29002KT 16/12 A2969 RMK A01 T01640122  RH  076%=      5-min Rain = 0
KPD3 210701Z 26001KT 16/12 A2969 RMK A01 T01610121  RH  077%=      5-min Rain = 0
KPD3 210702Z 30000KT 16/12 A2969 RMK A01 T01600120  RH  077%=      5-min Rain = 0
KPD3 210703Z 00000KT 16/12 A2969 RMK A01 T01610120  RH  076%=      5-min Rain = 0
KPD3 210704Z 25000KT 16/12 A2969 RMK A01 T01620121  RH  076%=      5-min Rain = 0
KPD3 210705Z 02001KT 16/12 A2969 RMK A01 T01610120  RH  077%=      5-min Rain = 0
KPD3 210706Z 06001KT 16/12 A2969 RMK A01 T01620120  RH  076%=      5-min Rain = 0
KPD3 210707Z 28002KT 16/12 A2969 RMK A01 T01640121  RH  076%=      5-min Rain = 0
KPD3 210708Z 31002KT 16/12 A2969 RMK A01 T01610118  RH  076%=      5-min Rain = 0
KPD3 210709Z 35002KT 16/12 A2969 RMK A01 T01610119  RH  076%=      5-min Rain = 0
KPD3 210710Z 31001KT 16/12 A2969 RMK A01 T01620120  RH  076%=      5-min Rain = 0
KPD3 210711Z 29001KT 16/12 A2969 RMK A01 T01600119  RH  077%=      5-min Rain = 0
KPD3 210712Z 33001KT 16/12 A2969 RMK A01 T01580118  RH  077%=      5-min Rain = 0
KPD3 210713Z 26003KT 16/12 A2969 RMK A01 T01570118  RH  077%=      5-min Rain = 0
KPD3 210714Z 04000KT 16/12 A2969 RMK A01 T01560117  RH  078%=      5-min Rain = 0
KPD3 210715Z 03000KT 16/12 A2969 RMK A01 T01570119  RH  078%=      5-min Rain = 0
KPD3 210716Z 00000KT 16/12 A2969 RMK A01 T01580119  RH  078%=      5-min Rain = 0
KPD3 210717Z 08001KT 16/12 A2969 RMK A01 T01560116  RH  077%=      5-min Rain = 0
KPD3 210718Z 07002KT 16/12 A2969 RMK A01 T01570118  RH  077%=      5-min Rain = 0
KPD3 210719Z 33002KT 16/12 A2969 RMK A01 T01560118  RH  078%=      5-min Rain = 0
KPD3 210720Z 32002KT 15/12 A2969 RMK A01 T01510117  RH  080%=      5-min Rain = 0
KPD3 210721Z 05002KT 15/12 A2969 RMK A01 T01480117  RH  081%=      5-min Rain = 0
KPD3 210722Z 04000KT 15/12 A2969 RMK A01 T01500118  RH  081%=      5-min Rain = 0
KPD3 210723Z 07000KT 15/12 A2969 RMK A01 T01490118  RH  082%=      5-min Rain = 0
KPD3 210724Z 03001KT 15/12 A2969 RMK A01 T01480118  RH  082%=      5-min Rain = 0
KPD3 210725Z 05002KT 15/12 A2969 RMK A01 T01470118  RH  083%=      5-min Rain = 0
KPD3 210726Z 02001KT 15/12 A2969 RMK A01 T01450117  RH  083%=      5-min Rain = 0
KPD3 210727Z 04001KT 14/12 A2969 RMK A01 T01430117  RH  085%=      5-min Rain = 0
KPD3 210728Z 08002KT 14/12 A2969 RMK A01 T01420117  RH  085%=      5-min Rain = 0
KPD3 210729Z 09002KT 14/12 A2969 RMK A01 T01420117  RH  085%=      5-min Rain = 0
KPD3 210730Z 09002KT 14/12 A2969 RMK A01 T01420117  RH  085%=      5-min Rain = 0
KPD3 210731Z 11002KT 14/12 A2969 RMK A01 T01410115  RH  084%=      5-min Rain = 0
KPD3 210732Z 12003KT 14/11 A2969 RMK A01 T01380110  RH  083%=      5-min Rain = 0
KPD3 210733Z 11004KT 14/11 A2969 RMK A01 T01360110  RH  084%=      5-min Rain = 0
KPD3 210734Z 11005KT 14/11 A2969 RMK A01 T01350111  RH  085%=      5-min Rain = 0
KPD3 210735Z 15002KT 14/11 A2969 RMK A01 T01350111  RH  085%=      5-min Rain = 0
KPD3 210736Z 18003KT 13/11 A2969 RMK A01 T01320107  RH  085%=      5-min Rain = 0
KPD3 210737Z 14003KT 13/11 A2969 RMK A01 T01310109  RH  086%=      5-min Rain = 0
KPD3 210738Z 14004KT 14/12 A2969 RMK A01 T01350117  RH  088%=      5-min Rain = 0
KPD3 210739Z 15002KT 15/13 A2969 RMK A01 T01500126  RH  086%=      5-min Rain = 0
KPD3 210740Z 18006KT 16/13 A2969 RMK A01 T01600126  RH  080%=      5-min Rain = 0
KPD3 210741Z 18006KT 17/13 A2969 RMK A01 T01710128  RH  076%=      5-min Rain = 0
KPD3 210742Z 16005KT 18/13 A2969 RMK A01 T01760128  RH  073%=      5-min Rain = 0
KPD3 210743Z 16005KT 18/13 A2969 RMK A01 T01800131  RH  073%=      5-min Rain = 0
KPD3 210744Z 15005KT 18/13 A2969 RMK A01 T01820133  RH  073%=      5-min Rain = 0
KPD3 210745Z 15007KT 18/14 A2969 RMK A01 T01830135  RH  073%=      5-min Rain = 0
KPD3 210746Z 14007KT 19/14 A2969 RMK A01 T01850138  RH  074%=      5-min Rain = 0
KPD3 210747Z 15007KT 19/14 A2969 RMK A01 T01880138  RH  073%=      5-min Rain = 0
KPD3 210748Z 14008KT 19/14 A2969 RMK A01 T01900138  RH  072%=      5-min Rain = 0
KPD3 210749Z 16005KT 19/14 A2969 RMK A01 T01910139  RH  072%=      5-min Rain = 0
KPD3 210750Z 23004KT 19/14 A2969 RMK A01 T01910139  RH  072%=      5-min Rain = 0
KPD3 210751Z 14004KT 19/13 A2969 RMK A01 T01900134  RH  070%=      5-min Rain = 0
KPD3 210752Z 24004KT 19/14 A2969 RMK A01 T01930135  RH  069%=      5-min Rain = 0
KPD3 210753Z 14003KT 19/14 A2968 RMK A01 T01940136  RH  069%=      5-min Rain = 0
KPD3 210754Z 13004KT 20/14 A2968 RMK A01 T01950135  RH  068%=      5-min Rain = 0
KPD3 210755Z 14003KT 20/14 A2969 RMK A01 T01960136  RH  068%=      5-min Rain = 0
KPD3 210756Z 18001KT 20/14 A2969 RMK A01 T01960136  RH  068%=      5-min Rain = 0
KPD3 210757Z 27000KT 20/14 A2969 RMK A01 T01950136  RH  069%=      5-min Rain = 0
KPD3 210758Z 27003KT 19/13 A2969 RMK A01 T01910133  RH  069%=      5-min Rain = 0
KPD3 210759Z 25001KT 19/13 A2969 RMK A01 T01860131  RH  070%=      5-min Rain = 0
KPD3 210800Z 17001KT 19/13 A2969 RMK A01 T01870132  RH  070%=      5-min Rain = 0
KPD3 210801Z 10001KT 19/13 A2969 RMK A01 T01900133  RH  070%=      5-min Rain = 0
KPD3 210802Z 07001KT 19/13 A2969 RMK A01 T01920134  RH  069%=      5-min Rain = 0
KPD3 210803Z 31002KT 19/13 A2969 RMK A01 T01920129  RH  067%=      5-min Rain = 0
KPD3 210804Z 32002KT 18/12 A2969 RMK A01 T01840124  RH  068%=      5-min Rain = 0
KPD3 210805Z 29001KT 18/12 A2969 RMK A01 T01760122  RH  070%=      5-min Rain = 0
KPD3 210806Z 29001KT 17/12 A2969 RMK A01 T01720122  RH  072%=      5-min Rain = 0
KPD3 210807Z 27004KT 17/12 A2969 RMK A01 T01690122  RH  074%=      5-min Rain = 0
KPD3 210808Z 25004KT 16/12 A2969 RMK A01 T01640121  RH  075%=      5-min Rain = 0
KPD3 210809Z 25004KT 16/12 A2969 RMK A01 T01620120  RH  076%=      5-min Rain = 0
KPD3 210810Z 26006KT 16/12 A2969 RMK A01 T01600119  RH  077%=      5-min Rain = 0
KPD3 210811Z 25005KT 16/12 A2969 RMK A01 T01570119  RH  078%=      5-min Rain = 0
KPD3 210812Z 25006KT 16/12 A2969 RMK A01 T01550119  RH  079%=      5-min Rain = 0
KPD3 210813Z 26007KT 15/12 A2969 RMK A01 T01540119  RH  080%=      5-min Rain = 0
KPD3 210814Z 26004KT 15/12 A2969 RMK A01 T01520118  RH  080%=      5-min Rain = 0
KPD3 210815Z 25004KT 15/12 A2969 RMK A01 T01510119  RH  081%=      5-min Rain = 0
KPD3 210816Z 24004KT 15/12 A2969 RMK A01 T01510119  RH  081%=      5-min Rain = 0
KPD3 210817Z 25005KT 15/12 A2969 RMK A01 T01510118  RH  081%=      5-min Rain = 0
KPD3 210818Z 25005KT 15/12 A2969 RMK A01 T01490117  RH  081%=      5-min Rain = 0
KPD3 210819Z 25005KT 15/12 A2969 RMK A01 T01480117  RH  082%=      5-min Rain = 0
KPD3 210820Z 24005KT 15/12 A2969 RMK A01 T01460116  RH  082%=      5-min Rain = 0
KPD3 210821Z 24005KT 15/12 A2969 RMK A01 T01450115  RH  082%=      5-min Rain = 0
KPD3 210822Z 25006KT 14/11 A2969 RMK A01 T01420113  RH  083%=      5-min Rain = 0
KPD3 210823Z 24006KT 14/11 A2969 RMK A01 T01410113  RH  084%=      5-min Rain = 0
KPD3 210824Z 23005KT 14/11 A2969 RMK A01 T01400113  RH  084%=      5-min Rain = 0
KPD3 210825Z 23005KT 14/11 A2969 RMK A01 T01400113  RH  084%=      5-min Rain = 0
KPD3 210826Z 24007KT 14/11 A2969 RMK A01 T01390113  RH  084%=      5-min Rain = 0
KPD3 210827Z 23005KT 14/11 A2969 RMK A01 T01380113  RH  085%=      5-min Rain = 0
KPD3 210828Z 24006KT 14/11 A2969 RMK A01 T01380112  RH  085%=      5-min Rain = 0
KPD3 210829Z 23006KT 14/11 A2969 RMK A01 T01370112  RH  085%=      5-min Rain = 0
KPD3 210830Z 23006KT 14/11 A2969 RMK A01 T01370113  RH  085%=      5-min Rain = 0
KPD3 210831Z 23006KT 14/11 A2969 RMK A01 T01370113  RH  085%=      5-min Rain = 0
KPD3 210832Z 22006KT 14/11 A2969 RMK A01 T01370113  RH  085%=      5-min Rain = 0
KPD3 210833Z 23006KT 14/11 A2969 RMK A01 T01370112  RH  085%=      5-min Rain = 0
KPD3 210834Z 24006KT 14/11 A2969 RMK A01 T01370112  RH  085%=      5-min Rain = 0
KPD3 210835Z 24006KT 14/11 A2969 RMK A01 T01370112  RH  085%=      5-min Rain = 0
KPD3 210836Z 24006KT 14/11 A2969 RMK A01 T01380112  RH  084%=      5-min Rain = 0
KPD3 210837Z 24006KT 14/11 A2969 RMK A01 T01380112  RH  084%=      5-min Rain = 0
KPD3 210838Z 24006KT 14/11 A2969 RMK A01 T01380112  RH  085%=      5-min Rain = 0
KPD3 210839Z 23006KT 14/11 A2969 RMK A01 T01380113  RH  085%=      5-min Rain = 0
KPD3 210840Z 23007KT 14/11 A2969 RMK A01 T01370113  RH  085%=      5-min Rain = 0
KPD3 210841Z 22007KT 14/11 A2969 RMK A01 T01370113  RH  085%=      5-min Rain = 0
KPD3 210842Z 22007KT 14/11 A2969 RMK A01 T01380112  RH  085%=      5-min Rain = 0
KPD3 210843Z 22008KT 14/11 A2969 RMK A01 T01380111  RH  084%=      5-min Rain = 0
KPD3 210844Z 22008KT 14/11 A2969 RMK A01 T01400110  RH  082%=      5-min Rain = 0
KPD3 210845Z 22008KT 14/11 A2969 RMK A01 T01430105  RH  078%=      5-min Rain = 0
KPD3 210846Z 22007KT 15/11 A2969 RMK A01 T01460105  RH  076%=      5-min Rain = 0
KPD3 210847Z 21006KT 15/11 A2969 RMK A01 T01450106  RH  077%=      5-min Rain = 0
KPD3 210848Z 22005KT 14/11 A2969 RMK A01 T01430107  RH  078%=      5-min Rain = 0
KPD3 210849Z 22005KT 14/11 A2969 RMK A01 T01420106  RH  079%=      5-min Rain = 0
KPD3 210850Z 22006KT 14/11 A2969 RMK A01 T01410105  RH  079%=      5-min Rain = 0
KPD3 210851Z 23006KT 14/10 A2969 RMK A01 T01400104  RH  079%=      5-min Rain = 0
KPD3 210852Z 26004KT 14/11 A2969 RMK A01 T01400105  RH  079%=      5-min Rain = 0
KPD3 210853Z 24006KT 14/11 A2969 RMK A01 T01400106  RH  080%=      5-min Rain = 0
KPD3 210854Z 24006KT 14/10 A2969 RMK A01 T01400103  RH  078%=      5-min Rain = 0
KPD3 210855Z 23007KT 14/10 A2969 RMK A01 T01420100  RH  076%=      5-min Rain = 0
KPD3 210856Z 23007KT 15/10 A2969 RMK A01 T01460097  RH  073%=      5-min Rain = 0
KPD3 210857Z 23008KT 15/10 A2969 RMK A01 T01490096  RH  071%=      5-min Rain = 0
KPD3 210858Z 22008KT 15/09 A2969 RMK A01 T01520093  RH  068%=      5-min Rain = 0
KPD3 210859Z 22007KT 15/09 A2969 RMK A01 T01540089  RH  065%=      5-min Rain = 0
KPD3 210900Z 22006KT 16/09 A2969 RMK A01 T01550090  RH  065%=      5-min Rain = 0
KPD3 210901Z 22007KT 16/09 A2969 RMK A01 T01570088  RH  064%=      5-min Rain = 0
KPD3 210902Z 22006KT 16/09 A2969 RMK A01 T01590088  RH  063%=      5-min Rain = 0
KPD3 210903Z 21007KT 16/09 A2969 RMK A01 T01600086  RH  061%=      5-min Rain = 0
KPD3 210904Z 21008KT 16/08 A2969 RMK A01 T01640080  RH  057%=      5-min Rain = 0
KPD3 210905Z 21008KT 17/08 A2969 RMK A01 T01670080  RH  056%=      5-min Rain = 0
KPD3 210906Z 20009KT 17/08 A2969 RMK A01 T01680077  RH  055%=      5-min Rain = 0
KPD3 210907Z 20010KT 17/07 A2969 RMK A01 T01740068  RH  050%=      5-min Rain = 0
KPD3 210908Z 20011KT 19/07 A2969 RMK A01 T01850066  RH  046%=      5-min Rain = 0
KPD3 210909Z 21011KT 20/06 A2969 RMK A01 T01950060  RH  041%=      5-min Rain = 0
KPD3 210910Z 21010KT 20/06 A2969 RMK A01 T02020062  RH  040%=      5-min Rain = 0
KPD3 210911Z 21011KT 21/06 A2969 RMK A01 T02060060  RH  039%=      5-min Rain = 0
KPD3 210912Z 22010KT 21/06 A2969 RMK A01 T02090057  RH  037%=      5-min Rain = 0
KPD3 210913Z 22010KT 21/06 A2969 RMK A01 T02110056  RH  036%=      5-min Rain = 0
KPD3 210914Z 23010KT 21/06 A2969 RMK A01 T02140055  RH  036%=      5-min Rain = 0
KPD3 210915Z 23010KT 22/05 A2969 RMK A01 T02160053  RH  035%=      5-min Rain = 0
KPD3 210916Z 22010KT 22/05 A2969 RMK A01 T02170054  RH  034%=      5-min Rain = 0
KPD3 210917Z 22009KT 22/05 A2969 RMK A01 T02180053  RH  034%=      5-min Rain = 0
KPD3 210918Z 22009KT 22/05 A2969 RMK A01 T02200051  RH  033%=      5-min Rain = 0
KPD3 210919Z 22010KT 22/05 A2969 RMK A01 T02210049  RH  033%=      5-min Rain = 0
KPD3 210920Z 22010KT 22/05 A2969 RMK A01 T02230049  RH  032%=      5-min Rain = 0
KPD3 210921Z 22009KT 22/05 A2969 RMK A01 T02230049  RH  032%=      5-min Rain = 0
KPD3 210922Z 22008KT 22/05 A2969 RMK A01 T02230051  RH  033%=      5-min Rain = 0
KPD3 210923Z 22009KT 22/05 A2969 RMK A01 T02210049  RH  032%=      5-min Rain = 0
KPD3 210924Z 22008KT 22/05 A2969 RMK A01 T02210047  RH  032%=      5-min Rain = 0
KPD3 210925Z 22007KT 22/05 A2969 RMK A01 T02210049  RH  033%=      5-min Rain = 0
KPD3 210926Z 23007KT 22/05 A297 RMK A01 T02190050  RH  033%=      5-min Rain = 0
KPD3 210927Z 25006KT 22/05 A297 RMK A01 T02170050  RH  034%=      5-min Rain = 0
KPD3 210928Z 26006KT 21/06 A297 RMK A01 T02140056  RH  036%=      5-min Rain = 0
KPD3 210929Z 25006KT 21/06 A297 RMK A01 T02090058  RH  037%=      5-min Rain = 0
KPD3 210930Z 24008KT 21/06 A297 RMK A01 T02050059  RH  038%=      5-min Rain = 0
KPD3 210931Z 23008KT 20/06 A297 RMK A01 T02010058  RH  039%=      5-min Rain = 0
KPD3 210932Z 22009KT 20/06 A297 RMK A01 T01980059  RH  040%=      5-min Rain = 0
KPD3 210933Z 22010KT 19/06 A2969 RMK A01 T01940058  RH  041%=      5-min Rain = 0
KPD3 210934Z 22010KT 19/06 A2969 RMK A01 T01940057  RH  041%=      5-min Rain = 0
KPD3 210935Z 22010KT 19/06 A2969 RMK A01 T01930056  RH  040%=      5-min Rain = 0
KPD3 210936Z 22009KT 20/05 A2969 RMK A01 T01960052  RH  039%=      5-min Rain = 0
KPD3 210937Z 22010KT 20/06 A2969 RMK A01 T01980055  RH  039%=      5-min Rain = 0
KPD3 210938Z 22010KT 20/05 A2969 RMK A01 T01980053  RH  038%=      5-min Rain = 0
KPD3 210939Z 22011KT 20/05 A2969 RMK A01 T02010048  RH  037%=      5-min Rain = 0
KPD3 210940Z 22013KT 21/04 A2969 RMK A01 T02070040  RH  033%=      5-min Rain = 0
KPD3 210941Z 22014KT 22/04 A2969 RMK A01 T02170039  RH  031%=      5-min Rain = 0
KPD3 210942Z 22014KT 23/04 A2969 RMK A01 T02270037  RH  029%=      5-min Rain = 0
KPD3 210943Z 22014KT 24/04 A2969 RMK A01 T02350036  RH  027%=      5-min Rain = 0
KPD3 210944Z 22013KT 24/04 A2969 RMK A01 T02390035  RH  026%=      5-min Rain = 0
KPD3 210945Z 23013KT 24/04 A2969 RMK A01 T02410037  RH  026%=      5-min Rain = 0
KPD3 210946Z 22012KT 24/04 A2969 RMK A01 T02390037  RH  027%=      5-min Rain = 0
KPD3 210947Z 23012KT 24/04 A2969 RMK A01 T02380037  RH  027%=      5-min Rain = 0
KPD3 210948Z 23014KT 24/04 A297 RMK A01 T02360036  RH  027%=      5-min Rain = 0
KPD3 210949Z 23013KT 24/03 A297 RMK A01 T02370033  RH  026%=      5-min Rain = 0
KPD3 210950Z 23013KT 24/03 A297 RMK A01 T02400032  RH  026%=      5-min Rain = 0
KPD3 210951Z 23015KT 24/03 A297 RMK A01 T02420029  RH  025%=      5-min Rain = 0
KPD3 210952Z 23017KT 25/03 A297 RMK A01 T02450029  RH  024%=      5-min Rain = 0
KPD3 210953Z 23017KT 25/03 A297 RMK A01 T02490026  RH  024%=      5-min Rain = 0
KPD3 210954Z 23013KT 25/03 A297 RMK A01 T02510028  RH  023%=      5-min Rain = 0
KPD3 210955Z 23015KT 25/03 A297 RMK A01 T02490030  RH  024%=      5-min Rain = 0
KPD3 210956Z 23014KT 25/03 A297 RMK A01 T02480029  RH  024%=      5-min Rain = 0
KPD3 210957Z 22019KT 25/03 A297 RMK A01 T02480025  RH  023%=      5-min Rain = 0
KPD3 210958Z 23016KT 25/02 A2969 RMK A01 T02520023  RH  022%=      5-min Rain = 0
KPD3 210959Z 23015KT 25/02 A297 RMK A01 T02540023  RH  022%=      5-min Rain = 0
KPD3 211000Z 23015KT 25/02 A297 RMK A01 T02540023  RH  022%=      5-min Rain = 0
KPD3 211001Z 23017KT 25/02 A297 RMK A01 T02540022  RH  022%=      5-min Rain = 0
KPD3 211002Z 23014KT 26/02 A297 RMK A01 T02550023  RH  022%=      5-min Rain = 0
KPD3 211003Z 23013KT 25/02 A2969 RMK A01 T02530023  RH  022%=      5-min Rain = 0
KPD3 211004Z 23015KT 25/02 A297 RMK A01 T02520023  RH  023%=      5-min Rain = 0
KPD3 211005Z 23015KT 25/02 A297 RMK A01 T02520022  RH  022%=      5-min Rain = 0
KPD3 211006Z 24015KT 25/02 A297 RMK A01 T02520021  RH  022%=      5-min Rain = 0
KPD3 211007Z 23015KT 25/02 A297 RMK A01 T02530022  RH  022%=      5-min Rain = 0
KPD3 211008Z 23015G20KT 25/02 A297 RMK A01 T02520022  RH  022%=      5-min Rain = 0
KPD3 211009Z 23015KT 25/02 A297 RMK A01 T02520021  RH  022%=      5-min Rain = 0
KPD3 211010Z 23016KT 25/02 A297 RMK A01 T02530022  RH  022%=      5-min Rain = 0
KPD3 211011Z 23014KT 25/02 A297 RMK A01 T02530022  RH  022%=      5-min Rain = 0
KPD3 211012Z 24016KT 25/02 A297 RMK A01 T02530023  RH  022%=      5-min Rain = 0
KPD3 211013Z 24015KT 25/02 A297 RMK A01 T02530023  RH  022%=      5-min Rain = 0
KPD3 211014Z 24015KT 25/02 A297 RMK A01 T02520024  RH  023%=      5-min Rain = 0
KPD3 211015Z 24017KT 25/02 A297 RMK A01 T02510023  RH  023%=      5-min Rain = 0
KPD3 211016Z 24016KT 25/02 A297 RMK A01 T02520023  RH  023%=      5-min Rain = 0
KPD3 211017Z 23016KT 25/03 A297 RMK A01 T02520026  RH  023%=      5-min Rain = 0
KPD3 211018Z 24016KT 25/03 A297 RMK A01 T02520027  RH  023%=      5-min Rain = 0
KPD3 211019Z 24015KT 25/03 A297 RMK A01 T02510028  RH  023%=      5-min Rain = 0
KPD3 211020Z 24017KT 25/03 A297 RMK A01 T02500029  RH  024%=      5-min Rain = 0
KPD3 211021Z 24018KT 25/03 A297 RMK A01 T02510029  RH  024%=      5-min Rain = 0
KPD3 211022Z 24017KT 25/03 A297 RMK A01 T02510029  RH  024%=      5-min Rain = 0
KPD3 211023Z 24018KT 25/03 A297 RMK A01 T02510030  RH  024%=      5-min Rain = 0
KPD3 211024Z 24019KT 25/03 A297 RMK A01 T02510030  RH  024%=      5-min Rain = 0
KPD3 211025Z 24018G23KT 25/03 A297 RMK A01 T02520030  RH  024%=      5-min Rain = 0
KPD3 211026Z 23019KT 25/03 A297 RMK A01 T02520030  RH  024%=      5-min Rain = 0
KPD3 211027Z 24018KT 25/03 A297 RMK A01 T02530030  RH  023%=      5-min Rain = 0
KPD3 211028Z 24016KT 25/03 A297 RMK A01 T02530031  RH  024%=      5-min Rain = 0
KPD3 211029Z 23019KT 25/03 A297 RMK A01 T02530030  RH  024%=      5-min Rain = 0
KPD3 211030Z 24017KT 25/03 A297 RMK A01 T02530031  RH  024%=      5-min Rain = 0
KPD3 211031Z 24018KT 25/03 A297 RMK A01 T02530033  RH  024%=      5-min Rain = 0
KPD3 211032Z 24019KT 25/03 A297 RMK A01 T02520033  RH  024%=      5-min Rain = 0
KPD3 211033Z 23020KT 25/03 A297 RMK A01 T02520033  RH  024%=      5-min Rain = 0
KPD3 211034Z 23020KT 25/04 A297 RMK A01 T02530035  RH  024%=      5-min Rain = 0
KPD3 211035Z 23021KT 25/04 A297 RMK A01 T02540036  RH  024%=      5-min Rain = 0
KPD3 211036Z 23020KT 26/04 A297 RMK A01 T02550037  RH  024%=      5-min Rain = 0
KPD3 211037Z 23020G26KT 26/04 A297 RMK A01 T02550037  RH  024%=      5-min Rain = 0
KPD3 211038Z 23021G26KT 26/04 A297 RMK A01 T02550038  RH  024%=      5-min Rain = 0
KPD3 211039Z 23022G27KT 26/04 A297 RMK A01 T02560039  RH  025%=      5-min Rain = 0
KPD3 211040Z 23020G25KT 26/04 A2971 RMK A01 T02570040  RH  025%=      5-min Rain = 0
KPD3 211041Z 23020KT 26/04 A2971 RMK A01 T02570042  RH  025%=      5-min Rain = 0
KPD3 211042Z 23020KT 26/04 A2971 RMK A01 T02570041  RH  025%=      5-min Rain = 0
KPD3 211043Z 23021KT 26/04 A2971 RMK A01 T02560041  RH  025%=      5-min Rain = 0
KPD3 211044Z 23020KT 26/04 A2971 RMK A01 T02560042  RH  025%=      5-min Rain = 0
KPD3 211045Z 23019KT 26/04 A2971 RMK A01 T02560044  RH  025%=      5-min Rain = 0
KPD3 211046Z 23016KT 26/05 A2971 RMK A01 T02550045  RH  026%=      5-min Rain = 0
KPD3 211047Z 23017KT 25/05 A2971 RMK A01 T02530046  RH  026%=      5-min Rain = 0
KPD3 211048Z 23018G24KT 25/05 A2971 RMK A01 T02510045  RH  026%=      5-min Rain = 0
KPD3 211049Z 23022KT 25/04 A2971 RMK A01 T02510042  RH  026%=      5-min Rain = 0
KPD3 211050Z 23019G25KT 25/04 A2971 RMK A01 T02540043  RH  025%=      5-min Rain = 0
KPD3 211051Z 23019G24KT 26/05 A2971 RMK A01 T02550046  RH  026%=      5-min Rain = 0
KPD3 211052Z 23021KT 26/05 A2971 RMK A01 T02560046  RH  026%=      5-min Rain = 0
KPD3 211053Z 22020KT 26/05 A2971 RMK A01 T02550046  RH  026%=      5-min Rain = 0
KPD3 211054Z 22020KT 26/05 A2971 RMK A01 T02550046  RH  026%=      5-min Rain = 0
KPD3 211055Z 22020G25KT 26/04 A2971 RMK A01 T02560044  RH  026%=      5-min Rain = 0
KPD3 211056Z 22021KT 26/04 A2971 RMK A01 T02570043  RH  025%=      5-min Rain = 0
KPD3 211057Z 22020KT 26/04 A2971 RMK A01 T02580044  RH  025%=      5-min Rain = 0
KPD3 211058Z 22019G24KT 26/05 A2971 RMK A01 T02580048  RH  026%=      5-min Rain = 0
KPD3 211059Z 23018G24KT 26/05 A2971 RMK A01 T02560049  RH  026%=      5-min Rain = 0
KPD3 211100Z 23019KT 26/05 A2971 RMK A01 T02550050  RH  027%=      5-min Rain = 0
KPD3 211101Z 23020KT 26/05 A2971 RMK A01 T02550052  RH  027%=      5-min Rain = 0
KPD3 211102Z 23019KT 26/05 A2971 RMK A01 T02550053  RH  027%=      5-min Rain = 0
KPD3 211103Z 23018KT 26/05 A2971 RMK A01 T02550053  RH  027%=      5-min Rain = 0
KPD3 211104Z 23016KT 25/06 A2972 RMK A01 T02540055  RH  028%=      5-min Rain = 0
KPD3 211105Z 23016KT 25/06 A2972 RMK A01 T02510056  RH  028%=      5-min Rain = 0
KPD3 211106Z 23016KT 25/06 A2972 RMK A01 T02500057  RH  029%=      5-min Rain = 0
KPD3 211107Z 23018KT 25/06 A2972 RMK A01 T02490059  RH  030%=      5-min Rain = 0
KPD3 211108Z 22018KT 25/06 A2971 RMK A01 T02470060  RH  030%=      5-min Rain = 0
KPD3 211109Z 23018G23KT 25/06 A2972 RMK A01 T02470060  RH  030%=      5-min Rain = 0
KPD3 211110Z 22018KT 25/06 A2972 RMK A01 T02470060  RH  030%=      5-min Rain = 0
KPD3 211111Z 22018KT 25/06 A2972 RMK A01 T02470060  RH  030%=      5-min Rain = 0
KPD3 211112Z 23016KT 25/06 A2972 RMK A01 T02470061  RH  030%=      5-min Rain = 0
KPD3 211113Z 22016KT 25/06 A2972 RMK A01 T02460062  RH  031%=      5-min Rain = 0
KPD3 211114Z 22017KT 24/06 A2972 RMK A01 T02440062  RH  031%=      5-min Rain = 0
KPD3 211115Z 22017KT 24/06 A2972 RMK A01 T02440062  RH  031%=      5-min Rain = 0
KPD3 211116Z 22017KT 24/06 A2971 RMK A01 T02430063  RH  031%=      5-min Rain = 0
KPD3 211117Z 22017KT 24/06 A2972 RMK A01 T02430063  RH  031%=      5-min Rain = 0
KPD3 211118Z 22016KT 24/06 A2971 RMK A01 T02430064  RH  032%=      5-min Rain = 0
KPD3 211119Z 22016KT 24/07 A2972 RMK A01 T02430066  RH  032%=      5-min Rain = 0
KPD3 211120Z 22015KT 24/07 A2972 RMK A01 T02420067  RH  033%=      5-min Rain = 0
KPD3 211121Z 22017KT 24/07 A2972 RMK A01 T02410068  RH  033%=      5-min Rain = 0
KPD3 211122Z 22017KT 24/07 A2972 RMK A01 T02400069  RH  033%=      5-min Rain = 0
KPD3 211123Z 23016KT 24/07 A2972 RMK A01 T02400069  RH  033%=      5-min Rain = 0
KPD3 211124Z 22015KT 24/07 A2972 RMK A01 T02390071  RH  034%=      5-min Rain = 0
KPD3 211125Z 22016KT 24/07 A2972 RMK A01 T02380071  RH  034%=      5-min Rain = 0
KPD3 211126Z 22015KT 24/07 A2972 RMK A01 T02360071  RH  035%=      5-min Rain = 0
KPD3 211127Z 22015KT 24/07 A2972 RMK A01 T02350072  RH  035%=      5-min Rain = 0
KPD3 211128Z 23014KT 23/07 A2972 RMK A01 T02340072  RH  035%=      5-min Rain = 0
KPD3 211129Z 23015KT 23/07 A2972 RMK A01 T02330071  RH  035%=      5-min Rain = 0
KPD3 211130Z 23014KT 23/07 A2972 RMK A01 T02320071  RH  035%=      5-min Rain = 0
KPD3 211131Z 23013KT 23/07 A2972 RMK A01 T02320071  RH  036%=      5-min Rain = 0
KPD3 211132Z 23013KT 23/07 A2972 RMK A01 T02310072  RH  036%=      5-min Rain = 0
KPD3 211133Z 23012KT 23/07 A2972 RMK A01 T02290071  RH  036%=      5-min Rain = 0
KPD3 211134Z 23012KT 23/07 A2972 RMK A01 T02280070  RH  036%=      5-min Rain = 0
KPD3 211135Z 23012KT 23/07 A2972 RMK A01 T02270070  RH  036%=      5-min Rain = 0
KPD3 211136Z 22012KT 23/07 A2972 RMK A01 T02250069  RH  036%=      5-min Rain = 0
KPD3 211137Z 23013KT 23/07 A2972 RMK A01 T02250068  RH  036%=      5-min Rain = 0
KPD3 211138Z 23012KT 22/07 A2972 RMK A01 T02240066  RH  036%=      5-min Rain = 0
KPD3 211139Z 23011KT 22/07 A2972 RMK A01 T02240065  RH  036%=      5-min Rain = 0
KPD3 211140Z 24011KT 22/07 A2972 RMK A01 T02230065  RH  036%=      5-min Rain = 0
KPD3 211141Z 24011KT 22/06 A2972 RMK A01 T02210063  RH  036%=      5-min Rain = 0
KPD3 211142Z 24011KT 22/06 A2972 RMK A01 T02190061  RH  036%=      5-min Rain = 0
KPD3 211143Z 24011KT 22/06 A2972 RMK A01 T02180059  RH  036%=      5-min Rain = 0
KPD3 211144Z 23012KT 22/06 A2972 RMK A01 T02170058  RH  036%=      5-min Rain = 0
KPD3 211145Z 23011KT 22/06 A2972 RMK A01 T02160057  RH  035%=      5-min Rain = 0
KPD3 211146Z 23012KT 22/06 A2972 RMK A01 T02160056  RH  035%=      5-min Rain = 0
KPD3 211147Z 23013KT 22/06 A2972 RMK A01 T02160055  RH  035%=      5-min Rain = 0
KPD3 211148Z 23012KT 22/05 A2972 RMK A01 T02170053  RH  034%=      5-min Rain = 0
KPD3 211149Z 23013KT 22/05 A2972 RMK A01 T02190052  RH  034%=      5-min Rain = 0
KPD3 211150Z 23012KT 22/05 A2972 RMK A01 T02200052  RH  034%=      5-min Rain = 0
KPD3 211151Z 23012KT 22/05 A2972 RMK A01 T02200052  RH  033%=      5-min Rain = 0
KPD3 211152Z 23013KT 22/05 A2972 RMK A01 T02210051  RH  033%=      5-min Rain = 0
KPD3 211153Z 23014KT 22/05 A2972 RMK A01 T02220050  RH  032%=      5-min Rain = 0
KPD3 211154Z 24014KT 22/05 A2972 RMK A01 T02240049  RH  032%=      5-min Rain = 0
KPD3 211155Z 24013KT 23/05 A2972 RMK A01 T02260048  RH  031%=      5-min Rain = 0
KPD3 211156Z 24013KT 23/05 A2972 RMK A01 T02260047  RH  031%=      5-min Rain = 0
KPD3 211157Z 23013KT 23/05 A2973 RMK A01 T02260047  RH  031%=      5-min Rain = 0
KPD3 211158Z 24012KT 23/05 A2973 RMK A01 T02260048  RH  031%=      5-min Rain = 0
KPD3 211159Z 24013KT 23/05 A2973 RMK A01 T02250047  RH  031%=      5-min Rain = 0
KPD3 211200Z 24014KT 22/05 A2973 RMK A01 T02240047  RH  032%=      5-min Rain = 0
KPD3 211201Z 24014KT 22/04 A2973 RMK A01 T02230044  RH  031%=      5-min Rain = 0
KPD3 211202Z 24014KT 22/04 A2973 RMK A01 T02240043  RH  031%=      5-min Rain = 0
KPD3 211203Z 24014KT 23/04 A2973 RMK A01 T02250042  RH  030%=      5-min Rain = 0
KPD3 211204Z 23015KT 23/04 A2973 RMK A01 T02250042  RH  030%=      5-min Rain = 0
KPD3 211205Z 23015KT 23/04 A2973 RMK A01 T02260042  RH  030%=      5-min Rain = 0
KPD3 211206Z 24014KT 23/04 A2973 RMK A01 T02270043  RH  030%=      5-min Rain = 0
KPD3 211207Z 23014KT 23/04 A2973 RMK A01 T02270044  RH  030%=      5-min Rain = 0
KPD3 211208Z 23015KT 23/05 A2973 RMK A01 T02270046  RH  031%=      5-min Rain = 0
KPD3 211209Z 24015KT 23/05 A2973 RMK A01 T02270045  RH  030%=      5-min Rain = 0
KPD3 211210Z 24014KT 23/04 A2973 RMK A01 T02280044  RH  030%=      5-min Rain = 0
KPD3 211211Z 24013KT 23/05 A2973 RMK A01 T02290046  RH  031%=      5-min Rain = 0
KPD3 211212Z 23014KT 23/05 A2973 RMK A01 T02280047  RH  031%=      5-min Rain = 0
KPD3 211213Z 23013KT 23/05 A2973 RMK A01 T02280046  RH  031%=      5-min Rain = 0
KPD3 211214Z 23014KT 23/05 A2973 RMK A01 T02280045  RH  030%=      5-min Rain = 0
KPD3 211215Z 24014KT 23/04 A2973 RMK A01 T02280044  RH  030%=      5-min Rain = 0
KPD3 211216Z 24015KT 23/04 A2973 RMK A01 T02280043  RH  030%=      5-min Rain = 0
KPD3 211217Z 23015KT 23/04 A2973 RMK A01 T02290043  RH  030%=      5-min Rain = 0
KPD3 211218Z 23015KT 23/04 A2973 RMK A01 T02290043  RH  030%=      5-min Rain = 0
KPD3 211219Z 23014KT 23/05 A2973 RMK A01 T02300045  RH  030%=      5-min Rain = 0
KPD3 211220Z 23014KT 23/05 A2973 RMK A01 T02300045  RH  030%=      5-min Rain = 0
KPD3 211221Z 23016KT 23/04 A2973 RMK A01 T02300044  RH  030%=      5-min Rain = 0
KPD3 211222Z 23016KT 23/04 A2973 RMK A01 T02310043  RH  029%=      5-min Rain = 0
KPD3 211223Z 24015KT 23/04 A2973 RMK A01 T02320044  RH  029%=      5-min Rain = 0
KPD3 211224Z 23015KT 23/04 A2973 RMK A01 T02330042  RH  029%=      5-min Rain = 0
KPD3 211225Z 23015KT 23/04 A2974 RMK A01 T02340043  RH  029%=      5-min Rain = 0
KPD3 211226Z 23015KT 23/04 A2974 RMK A01 T02340044  RH  029%=      5-min Rain = 0
KPD3 211227Z 23015KT 23/04 A2974 RMK A01 T02340044  RH  029%=      5-min Rain = 0
KPD3 211228Z 24015KT 23/04 A2974 RMK A01 T02340044  RH  029%=      5-min Rain = 0
KPD3 211229Z 24016KT 24/04 A2974 RMK A01 T02350043  RH  029%=      5-min Rain = 0
KPD3 211230Z 24015KT 24/04 A2974 RMK A01 T02360043  RH  028%=      5-min Rain = 0
KPD3 211231Z 23015KT 24/04 A2974 RMK A01 T02370044  RH  028%=      5-min Rain = 0
KPD3 211232Z 23014KT 24/05 A2974 RMK A01 T02370045  RH  029%=      5-min Rain = 0
KPD3 211233Z 24013KT 24/05 A2974 RMK A01 T02370048  RH  029%=      5-min Rain = 0
KPD3 211234Z 23015KT 24/05 A2974 RMK A01 T02360046  RH  029%=      5-min Rain = 0
KPD3 211235Z 24014KT 24/05 A2974 RMK A01 T02370046  RH  029%=      5-min Rain = 0
KPD3 211236Z 24014KT 24/05 A2974 RMK A01 T02370047  RH  029%=      5-min Rain = 0
KPD3 211237Z 23015KT 24/05 A2974 RMK A01 T02380046  RH  029%=      5-min Rain = 0
KPD3 211238Z 24014KT 24/05 A2974 RMK A01 T02380046  RH  029%=      5-min Rain = 0
KPD3 211239Z 23015KT 24/05 A2974 RMK A01 T02390047  RH  029%=      5-min Rain = 0
KPD3 211240Z 23014KT 24/05 A2974 RMK A01 T02390047  RH  029%=      5-min Rain = 0
KPD3 211241Z 23014KT 24/05 A2974 RMK A01 T02390048  RH  029%=      5-min Rain = 0
KPD3 211242Z 23014KT 24/05 A2974 RMK A01 T02400049  RH  029%=      5-min Rain = 0
KPD3 211243Z 23014KT 24/05 A2974 RMK A01 T02410050  RH  029%=      5-min Rain = 0
KPD3 211244Z 24013KT 24/05 A2974 RMK A01 T02410050  RH  029%=      5-min Rain = 0
KPD3 211245Z 23014KT 24/05 A2974 RMK A01 T02420049  RH  029%=      5-min Rain = 0
KPD3 211246Z 23014KT 24/05 A2975 RMK A01 T02430050  RH  029%=      5-min Rain = 0
KPD3 211247Z 24013KT 24/05 A2975 RMK A01 T02430052  RH  029%=      5-min Rain = 0
KPD3 211248Z 24013KT 24/05 A2975 RMK A01 T02430053  RH  029%=      5-min Rain = 0
KPD3 211249Z 24014KT 24/05 A2975 RMK A01 T02430052  RH  029%=      5-min Rain = 0
KPD3 211250Z 23013KT 24/05 A2975 RMK A01 T02440052  RH  029%=      5-min Rain = 0
KPD3 211251Z 24014KT 24/05 A2975 RMK A01 T02440053  RH  029%=      5-min Rain = 0
KPD3 211252Z 23013KT 25/05 A2975 RMK A01 T02450052  RH  029%=      5-min Rain = 0
KPD3 211253Z 24013KT 25/05 A2975 RMK A01 T02450053  RH  029%=      5-min Rain = 0
KPD3 211254Z 23014KT 25/06 A2975 RMK A01 T02450055  RH  029%=      5-min Rain = 0
KPD3 211255Z 23013KT 25/05 A2975 RMK A01 T02460052  RH  029%=      5-min Rain = 0
KPD3 211256Z 23013KT 25/05 A2975 RMK A01 T02460054  RH  029%=      5-min Rain = 0
KPD3 211257Z 23013KT 25/06 A2975 RMK A01 T02470055  RH  029%=      5-min Rain = 0
KPD3 211258Z 23015KT 25/05 A2975 RMK A01 T02480052  RH  028%=      5-min Rain = 0
KPD3 211259Z 23014KT 25/06 A2975 RMK A01 T02480055  RH  029%=      5-min Rain = 0
KPD3 211300Z 23014KT 25/06 A2975 RMK A01 T02480055  RH  029%=      5-min Rain = 0
KPD3 211301Z 23012KT 25/06 A2975 RMK A01 T02490058  RH  029%=      5-min Rain = 0
KPD3 211302Z 23012KT 25/06 A2975 RMK A01 T02490060  RH  030%=      5-min Rain = 0
KPD3 211303Z 23013KT 25/06 A2975 RMK A01 T02490063  RH  030%=      5-min Rain = 0
KPD3 211304Z 23014KT 25/06 A2975 RMK A01 T02480059  RH  030%=      5-min Rain = 0
KPD3 211305Z 23014KT 25/06 A2975 RMK A01 T02490060  RH  030%=      5-min Rain = 0
KPD3 211306Z 23015KT 25/06 A2975 RMK A01 T02500060  RH  029%=      5-min Rain = 0
KPD3 211307Z 23013KT 25/06 A2976 RMK A01 T02500061  RH  030%=      5-min Rain = 0
KPD3 211308Z 22013KT 25/06 A2976 RMK A01 T02500059  RH  029%=      5-min Rain = 0
KPD3 211309Z 23013KT 25/06 A2976 RMK A01 T02510061  RH  030%=      5-min Rain = 0
KPD3 211310Z 23014KT 25/06 A2976 RMK A01 T02510063  RH  030%=      5-min Rain = 0
KPD3 211311Z 23014KT 25/06 A2976 RMK A01 T02510061  RH  030%=      5-min Rain = 0
KPD3 211312Z 23015KT 25/06 A2976 RMK A01 T02510063  RH  030%=      5-min Rain = 0
KPD3 211313Z 23014KT 25/07 A2976 RMK A01 T02510065  RH  030%=      5-min Rain = 0
KPD3 211314Z 23014KT 25/07 A2976 RMK A01 T02510067  RH  031%=      5-min Rain = 0
KPD3 211315Z 23014KT 25/07 A2976 RMK A01 T02510066  RH  031%=      5-min Rain = 0
KPD3 211316Z 23014KT 25/07 A2976 RMK A01 T02520067  RH  031%=      5-min Rain = 0
KPD3 211317Z 23013KT 25/07 A2976 RMK A01 T02520067  RH  031%=      5-min Rain = 0
KPD3 211318Z 23013KT 25/07 A2976 RMK A01 T02520070  RH  031%=      5-min Rain = 0
KPD3 211319Z 23013KT 25/07 A2976 RMK A01 T02520070  RH  031%=      5-min Rain = 0
KPD3 211320Z 22013KT 25/07 A2976 RMK A01 T02520072  RH  032%=      5-min Rain = 0
KPD3 211321Z 23014KT 25/07 A2976 RMK A01 T02530070  RH  031%=      5-min Rain = 0
KPD3 211322Z 23012KT 25/07 A2976 RMK A01 T02530072  RH  031%=      5-min Rain = 0
KPD3 211323Z 23014KT 25/07 A2976 RMK A01 T02540074  RH  032%=      5-min Rain = 0
KPD3 211324Z 23013KT 26/07 A2976 RMK A01 T02550073  RH  031%=      5-min Rain = 0
KPD3 211325Z 23014KT 26/07 A2976 RMK A01 T02550071  RH  031%=      5-min Rain = 0
KPD3 211326Z 23014KT 26/07 A2976 RMK A01 T02560070  RH  031%=      5-min Rain = 0
KPD3 211327Z 23013KT 26/07 A2976 RMK A01 T02560072  RH  031%=      5-min Rain = 0
KPD3 211328Z 23013KT 26/08 A2976 RMK A01 T02570075  RH  031%=      5-min Rain = 0
KPD3 211329Z 23015KT 26/07 A2976 RMK A01 T02570073  RH  031%=      5-min Rain = 0
KPD3 211330Z 23015KT 26/07 A2976 RMK A01 T02580074  RH  031%=      5-min Rain = 0
KPD3 211331Z 23013KT 26/08 A2976 RMK A01 T02580078  RH  032%=      5-min Rain = 0
KPD3 211332Z 23012KT 26/08 A2976 RMK A01 T02590082  RH  032%=      5-min Rain = 0
KPD3 211333Z 23012KT 26/08 A2976 RMK A01 T02600082  RH  032%=      5-min Rain = 0
KPD3 211334Z 23015KT 26/08 A2976 RMK A01 T02610078  RH  031%=      5-min Rain = 0
KPD3 211335Z 23013KT 26/08 A2976 RMK A01 T02620078  RH  031%=      5-min Rain = 0
KPD3 211336Z 23014KT 26/08 A2976 RMK A01 T02630081  RH  032%=      5-min Rain = 0
KPD3 211337Z 23016KT 26/08 A2976 RMK A01 T02630076  RH  030%=      5-min Rain = 0
KPD3 211338Z 23015KT 26/08 A2976 RMK A01 T02640076  RH  030%=      5-min Rain = 0
KPD3 211339Z 23014KT 27/08 A2976 RMK A01 T02650078  RH  031%=      5-min Rain = 0
KPD3 211340Z 23015KT 27/08 A2976 RMK A01 T02650080  RH  031%=      5-min Rain = 0
KPD3 211341Z 23014KT 27/08 A2976 RMK A01 T02650080  RH  031%=      5-min Rain = 0
KPD3 211342Z 23015KT 27/08 A2976 RMK A01 T02660080  RH  031%=      5-min Rain = 0
KPD3 211343Z 23014KT 27/08 A2976 RMK A01 T02660081  RH  031%=      5-min Rain = 0
KPD3 211344Z 23014KT 27/08 A2976 RMK A01 T02660083  RH  031%=      5-min Rain = 0
KPD3 211345Z 23014KT 27/08 A2976 RMK A01 T02670083  RH  031%=      5-min Rain = 0
KPD3 211346Z 23015KT 27/08 A2977 RMK A01 T02670082  RH  031%=      5-min Rain = 0
KPD3 211347Z 23015KT 27/08 A2977 RMK A01 T02670081  RH  031%=      5-min Rain = 0
KPD3 211348Z 23014KT 27/09 A2977 RMK A01 T02680085  RH  031%=      5-min Rain = 0
KPD3 211349Z 23012KT 27/09 A2977 RMK A01 T02680087  RH  032%=      5-min Rain = 0
KPD3 211350Z 23013KT 27/09 A2977 RMK A01 T02690085  RH  031%=      5-min Rain = 0
KPD3 211351Z 23013KT 27/09 A2977 RMK A01 T02700087  RH  032%=      5-min Rain = 0
KPD3 211352Z 23012KT 27/09 A2977 RMK A01 T02700090  RH  032%=      5-min Rain = 0
KPD3 211353Z 23013KT 27/09 A2977 RMK A01 T02710089  RH  032%=      5-min Rain = 0
KPD3 211354Z 23015KT 27/09 A2977 RMK A01 T02720090  RH  032%=      5-min Rain = 0
KPD3 211355Z 23014KT 27/09 A2977 RMK A01 T02730088  RH  031%=      5-min Rain = 0
KPD3 211356Z 23014KT 27/09 A2977 RMK A01 T02740091  RH  032%=      5-min Rain = 0
KPD3 211357Z 23017KT 27/09 A2977 RMK A01 T02740088  RH  031%=      5-min Rain = 0
KPD3 211358Z 23016KT 28/08 A2977 RMK A01 T02750084  RH  030%=      5-min Rain = 0
KPD3 211359Z 23014KT 28/09 A2978 RMK A01 T02760087  RH  031%=      5-min Rain = 0
KPD3 211400Z 23017KT 28/08 A2978 RMK A01 T02760084  RH  030%=      5-min Rain = 0
KPD3 211401Z 23016KT 28/08 A2978 RMK A01 T02770084  RH  030%=      5-min Rain = 0
KPD3 211402Z 23016KT 28/09 A2978 RMK A01 T02780086  RH  030%=      5-min Rain = 0
KPD3 211403Z 23014KT 28/08 A2978 RMK A01 T02780084  RH  029%=      5-min Rain = 0
KPD3 211404Z 23014KT 28/09 A2978 RMK A01 T02790087  RH  030%=      5-min Rain = 0
KPD3 211405Z 23013KT 28/09 A2978 RMK A01 T02800089  RH  030%=      5-min Rain = 0
KPD3 211406Z 24013KT 28/09 A2978 RMK A01 T02810092  RH  031%=      5-min Rain = 0
KPD3 211407Z 23013KT 28/09 A2978 RMK A01 T02820086  RH  029%=      5-min Rain = 0
KPD3 211408Z 23013KT 28/09 A2978 RMK A01 T02830091  RH  030%=      5-min Rain = 0
KPD3 211409Z 24014KT 28/09 A2978 RMK A01 T02840091  RH  030%=      5-min Rain = 0
KPD3 211410Z 23013G18KT 29/09 A2978 RMK A01 T02850091  RH  030%=      5-min Rain = 0
KPD3 211411Z 23013KT 29/09 A2978 RMK A01 T02860088  RH  029%=      5-min Rain = 0
KPD3 211412Z 23015KT 29/09 A2978 RMK A01 T02860088  RH  029%=      5-min Rain = 0
KPD3 211413Z 23015KT 29/09 A2978 RMK A01 T02870086  RH  028%=      5-min Rain = 0
KPD3 211414Z 23017KT 29/08 A2978 RMK A01 T02880080  RH  027%=      5-min Rain = 0
KPD3 211415Z 23015KT 29/08 A2978 RMK A01 T02880081  RH  027%=      5-min Rain = 0
KPD3 211416Z 23017KT 29/08 A2978 RMK A01 T02890079  RH  027%=      5-min Rain = 0
KPD3 211417Z 23015KT 29/08 A2978 RMK A01 T02900081  RH  027%=      5-min Rain = 0
KPD3 211418Z 23015KT 29/08 A2978 RMK A01 T02900081  RH  027%=      5-min Rain = 0
KPD3 211419Z 23014G20KT 29/08 A2979 RMK A01 T02910084  RH  027%=      5-min Rain = 0
KPD3 211420Z 22015KT 29/08 A2978 RMK A01 T02920080  RH  026%=      5-min Rain = 0
KPD3 211421Z 23016KT 29/08 A2979 RMK A01 T02930076  RH  026%=      5-min Rain = 0
KPD3 211422Z 23015KT 29/08 A2979 RMK A01 T02930078  RH  026%=      5-min Rain = 0
KPD3 211423Z 22015KT 29/08 A2979 RMK A01 T02940079  RH  026%=      5-min Rain = 0
KPD3 211424Z 23020KT 29/08 A2979 RMK A01 T02940075  RH  025%=      5-min Rain = 0
KPD3 211425Z 23017KT 29/07 A2979 RMK A01 T02940070  RH  024%=      5-min Rain = 0
KPD3 211426Z 23017KT 29/07 A2979 RMK A01 T02940071  RH  025%=      5-min Rain = 0
KPD3 211427Z 23018KT 29/07 A2979 RMK A01 T02940068  RH  024%=      5-min Rain = 0
KPD3 211428Z 23018KT 29/07 A2979 RMK A01 T02940071  RH  025%=      5-min Rain = 0
KPD3 211429Z 23017KT 29/07 A2979 RMK A01 T02940074  RH  025%=      5-min Rain = 0
KPD3 211430Z 23016KT 29/08 A2979 RMK A01 T02940075  RH  025%=      5-min Rain = 0
KPD3 211431Z 23013KT 29/08 A2979 RMK A01 T02940078  RH  026%=      5-min Rain = 0
KPD3 211432Z 23012KT 30/09 A2979 RMK A01 T02960087  RH  027%=      5-min Rain = 0
KPD3 211433Z 22011KT 30/09 A2979 RMK A01 T02970088  RH  027%=      5-min Rain = 0
KPD3 211434Z 23011KT 30/09 A2979 RMK A01 T02980088  RH  027%=      5-min Rain = 0
KPD3 211435Z 23016KT 30/08 A2979 RMK A01 T03000079  RH  025%=      5-min Rain = 0
KPD3 211436Z 24014G19KT 30/07 A2979 RMK A01 T03000074  RH  024%=      5-min Rain = 0
KPD3 211437Z 23016KT 30/07 A2979 RMK A01 T02990069  RH  024%=      5-min Rain = 0
KPD3 211438Z 23015KT 30/08 A2979 RMK A01 T02980075  RH  025%=      5-min Rain = 0
KPD3 211439Z 23014KT 30/08 A2979 RMK A01 T02980077  RH  025%=      5-min Rain = 0
KPD3 211440Z 24013KT 30/08 A2979 RMK A01 T02980078  RH  025%=      5-min Rain = 0
KPD3 211441Z 24013KT 30/08 A2979 RMK A01 T02990075  RH  025%=      5-min Rain = 0
KPD3 211442Z 22016KT 30/08 A2979 RMK A01 T02990080  RH  025%=      5-min Rain = 0
KPD3 211443Z 23015KT 30/08 A2979 RMK A01 T03000076  RH  025%=      5-min Rain = 0
KPD3 211444Z 23016KT 30/08 A2979 RMK A01 T03010075  RH  024%=      5-min Rain = 0
KPD3 211445Z 23016G21KT 30/07 A2979 RMK A01 T03010066  RH  023%=      5-min Rain = 0
KPD3 211446Z 23017KT 30/06 A2979 RMK A01 T03010063  RH  022%=      5-min Rain = 0
KPD3 211447Z 23014KT 30/07 A2979 RMK A01 T03010067  RH  023%=      5-min Rain = 0
KPD3 211448Z 23015KT 30/07 A2979 RMK A01 T03020070  RH  023%=      5-min Rain = 0
KPD3 211449Z 22016KT 30/07 A2979 RMK A01 T03030067  RH  023%=      5-min Rain = 0
KPD3 211450Z 23015KT 30/07 A2979 RMK A01 T03030069  RH  023%=      5-min Rain = 0
KPD3 211451Z 23012KT 30/08 A2979 RMK A01 T03030075  RH  024%=      5-min Rain = 0
KPD3 211452Z 23015KT 31/08 A2979 RMK A01 T03060076  RH  024%=      5-min Rain = 0
KPD3 211453Z 24017KT 31/07 A2979 RMK A01 T03060065  RH  022%=      5-min Rain = 0
KPD3 211454Z 22014G19KT 31/06 A2979 RMK A01 T03060062  RH  022%=      5-min Rain = 0
KPD3 211455Z 23016KT 31/07 A2979 RMK A01 T03070065  RH  022%=      5-min Rain = 0
KPD3 211456Z 23017KT 31/06 A2979 RMK A01 T03070063  RH  022%=      5-min Rain = 0
KPD3 211457Z 23015KT 31/07 A2979 RMK A01 T03070069  RH  023%=      5-min Rain = 0
KPD3 211458Z 23014KT 31/07 A2979 RMK A01 T03070072  RH  023%=      5-min Rain = 0
KPD3 211459Z 23014KT 31/07 A2979 RMK A01 T03080068  RH  022%=      5-min Rain = 0
KPD3 211500Z 23015KT 31/07 A2979 RMK A01 T03080070  RH  023%=      5-min Rain = 0
KPD3 211501Z 23016KT 31/07 A2979 RMK A01 T03090068  RH  022%=      5-min Rain = 0
KPD3 211502Z 24017G22KT 31/06 A2979 RMK A01 T03110063  RH  021%=      5-min Rain = 0
KPD3 211503Z 23016KT 31/06 A2979 RMK A01 T03110058  RH  020%=      5-min Rain = 0
KPD3 211504Z 24014G19KT 31/06 A2979 RMK A01 T03110062  RH  021%=      5-min Rain = 0
KPD3 211505Z 24017KT 31/06 A2979 RMK A01 T03110062  RH  021%=      5-min Rain = 0
KPD3 211506Z 24016KT 31/06 A2979 RMK A01 T03120059  RH  020%=      5-min Rain = 0
KPD3 211507Z 24018KT 31/06 A2979 RMK A01 T03120058  RH  020%=      5-min Rain = 0
KPD3 211508Z 23017KT 31/06 A2979 RMK A01 T03120061  RH  021%=      5-min Rain = 0
KPD3 211509Z 23016KT 31/06 A2979 RMK A01 T03130058  RH  020%=      5-min Rain = 0
KPD3 211510Z 23016KT 31/06 A2979 RMK A01 T03130062  RH  021%=      5-min Rain = 0
KPD3 211511Z 23017KT 31/06 A2979 RMK A01 T03130063  RH  021%=      5-min Rain = 0
KPD3 211512Z 23015KT 31/06 A2979 RMK A01 T03140064  RH  021%=      5-min Rain = 0
KPD3 211513Z 24016KT 31/07 A2979 RMK A01 T03140065  RH  021%=      5-min Rain = 0
KPD3 211514Z 24017KT 32/06 A2979 RMK A01 T03150060  RH  020%=      5-min Rain = 0
KPD3 211515Z 24018KT 32/05 A2979 RMK A01 T03150054  RH  019%=      5-min Rain = 0
KPD3 211516Z 25016KT 32/06 A2979 RMK A01 T03150057  RH  020%=      5-min Rain = 0
KPD3 211517Z 24016KT 32/06 A2979 RMK A01 T03160061  RH  020%=      5-min Rain = 0
KPD3 211518Z 24015G20KT 32/06 A2979 RMK A01 T03170055  RH  019%=      5-min Rain = 0
KPD3 211519Z 24016G21KT 32/05 A2979 RMK A01 T03170050  RH  019%=      5-min Rain = 0
KPD3 211520Z 24017KT 32/05 A2979 RMK A01 T03170049  RH  019%=      5-min Rain = 0
KPD3 211521Z 24018KT 32/05 A2979 RMK A01 T03180046  RH  018%=      5-min Rain = 0
KPD3 211522Z 24017KT 32/04 A2979 RMK A01 T03190042  RH  018%=      5-min Rain = 0
KPD3 211523Z 24015KT 32/05 A2979 RMK A01 T03190050  RH  018%=      5-min Rain = 0
KPD3 211524Z 23016KT 32/05 A2979 RMK A01 T03210053  RH  019%=      5-min Rain = 0
KPD3 211525Z 24017KT 32/05 A2979 RMK A01 T03220048  RH  018%=      5-min Rain = 0
KPD3 211526Z 24014KT 32/05 A2979 RMK A01 T03220052  RH  018%=      5-min Rain = 0
KPD3 211527Z 24014KT 32/06 A2979 RMK A01 T03220059  RH  019%=      5-min Rain = 0
KPD3 211528Z 24015KT 32/06 A2979 RMK A01 T03240059  RH  019%=      5-min Rain = 0
KPD3 211529Z 24019KT 32/04 A2979 RMK A01 T03240044  RH  017%=      5-min Rain = 0
KPD3 211530Z 24017KT 32/04 A2979 RMK A01 T03230043  RH  017%=      5-min Rain = 0
KPD3 211531Z 24016KT 32/05 A2979 RMK A01 T03230054  RH  019%=      5-min Rain = 0
KPD3 211532Z 24014KT 32/06 A2979 RMK A01 T03240056  RH  019%=      5-min Rain = 0
KPD3 211533Z 24016KT 33/05 A2979 RMK A01 T03260053  RH  018%=      5-min Rain = 0
KPD3 211534Z 24018KT 33/05 A2979 RMK A01 T03270049  RH  018%=      5-min Rain = 0
KPD3 211535Z 24016KT 33/04 A2979 RMK A01 T03270043  RH  017%=      5-min Rain = 0
KPD3 211536Z 24017KT 33/05 A2979 RMK A01 T03270046  RH  017%=      5-min Rain = 0
KPD3 211537Z 24016KT 33/04 A2979 RMK A01 T03270042  RH  017%=      5-min Rain = 0
KPD3 211538Z 25016KT 33/04 A2979 RMK A01 T03270044  RH  017%=      5-min Rain = 0
KPD3 211539Z 24014KT 33/05 A2979 RMK A01 T03280045  RH  017%=      5-min Rain = 0
KPD3 211540Z 24016KT 33/04 A2979 RMK A01 T03280043  RH  017%=      5-min Rain = 0
KPD3 211541Z 25017G22KT 33/04 A2979 RMK A01 T03290037  RH  016%=      5-min Rain = 0
KPD3 211542Z 24016KT 33/03 A2979 RMK A01 T03290033  RH  016%=      5-min Rain = 0
KPD3 211543Z 24014KT 33/05 A2979 RMK A01 T03290046  RH  017%=      5-min Rain = 0
KPD3 211544Z 24015G20KT 33/05 A2979 RMK A01 T03310047  RH  017%=      5-min Rain = 0
KPD3 211545Z 24018KT 33/04 A2979 RMK A01 T03320040  RH  016%=      5-min Rain = 0
KPD3 211546Z 23017KT 33/04 A2979 RMK A01 T03320037  RH  016%=      5-min Rain = 0
KPD3 211547Z 24015KT 33/03 A2979 RMK A01 T03310033  RH  015%=      5-min Rain = 0
KPD3 211548Z 24014KT 33/04 A2979 RMK A01 T03310042  RH  016%=      5-min Rain = 0
KPD3 211549Z 25017KT 33/04 A2979 RMK A01 T03320043  RH  016%=      5-min Rain = 0
KPD3 211550Z 25014KT 33/04 A2979 RMK A01 T03330039  RH  016%=      5-min Rain = 0
KPD3 211551Z 24013KT 33/04 A2979 RMK A01 T03340042  RH  016%=      5-min Rain = 0
KPD3 211552Z 24013KT 33/05 A2979 RMK A01 T03340047  RH  017%=      5-min Rain = 0
KPD3 211553Z 24016KT 34/04 A2979 RMK A01 T03350041  RH  016%=      5-min Rain = 0
KPD3 211554Z 24016KT 34/04 A2979 RMK A01 T03350037  RH  015%=      5-min Rain = 0
KPD3 211555Z 24015KT 33/04 A2979 RMK A01 T03340036  RH  015%=      5-min Rain = 0
KPD3 211556Z 24015KT 33/04 A2979 RMK A01 T03340044  RH  016%=      5-min Rain = 0
KPD3 211557Z 24014KT 34/04 A2979 RMK A01 T03350040  RH  016%=      5-min Rain = 0
KPD3 211558Z 24015KT 34/04 A2979 RMK A01 T03350040  RH  016%=      5-min Rain = 0
KPD3 211559Z 24012KT 34/04 A2979 RMK A01 T03350042  RH  016%=      5-min Rain = 0
KPD3 211600Z 24011KT 34/04 A2979 RMK A01 T03360044  RH  016%=      5-min Rain = 0
KPD3 211601Z 24012KT 34/05 A2979 RMK A01 T03370048  RH  016%=      5-min Rain = 0
KPD3 211602Z 24015KT 34/05 A2979 RMK A01 T03390051  RH  017%=      5-min Rain = 0
KPD3 211603Z 25015G20KT 34/04 A2979 RMK A01 T03400044  RH  016%=      5-min Rain = 0
KPD3 211604Z 27016KT 34/03 A2979 RMK A01 T03410032  RH  014%=      5-min Rain = 0
KPD3 211605Z 25012KT 34/04 A2979 RMK A01 T03380038  RH  015%=      5-min Rain = 0
KPD3 211606Z 24012KT 34/05 A2979 RMK A01 T03380047  RH  016%=      5-min Rain = 0
KPD3 211607Z 24015KT 34/04 A2979 RMK A01 T03400044  RH  016%=      5-min Rain = 0
KPD3 211608Z 24016KT 34/04 A2979 RMK A01 T03410041  RH  015%=      5-min Rain = 0
KPD3 211609Z 25015KT 34/03 A2979 RMK A01 T03410034  RH  015%=      5-min Rain = 0
KPD3 211610Z 25013KT 34/04 A2979 RMK A01 T03400042  RH  016%=      5-min Rain = 0
KPD3 211611Z 25013KT 34/04 A2979 RMK A01 T03400043  RH  016%=      5-min Rain = 0
KPD3 211612Z 24017KT 34/04 A2979 RMK A01 T03410041  RH  015%=      5-min Rain = 0
KPD3 211613Z 25016KT 34/03 A2979 RMK A01 T03410030  RH  014%=      5-min Rain = 0
KPD3 211614Z 25015KT 34/03 A2979 RMK A01 T03410026  RH  014%=      5-min Rain = 0
KPD3 211615Z 26014KT 34/03 A2979 RMK A01 T03400031  RH  014%=      5-min Rain = 0
KPD3 211616Z 26014KT 34/04 A2979 RMK A01 T03400038  RH  015%=      5-min Rain = 0
KPD3 211617Z 25013KT 34/04 A2979 RMK A01 T03400044  RH  016%=      5-min Rain = 0
KPD3 211618Z 24014KT 34/05 A2979 RMK A01 T03420048  RH  016%=      5-min Rain = 0
KPD3 211619Z 24015KT 34/04 A2979 RMK A01 T03440038  RH  015%=      5-min Rain = 0
KPD3 211620Z 24015KT 34/04 A2979 RMK A01 T03430040  RH  015%=      5-min Rain = 0
KPD3 211621Z 24015KT 34/04 A2979 RMK A01 T03430035  RH  015%=      5-min Rain = 0
KPD3 211622Z 25012KT 34/03 A2979 RMK A01 T03430034  RH  014%=      5-min Rain = 0
KPD3 211623Z 24011KT 34/04 A2979 RMK A01 T03430040  RH  015%=      5-min Rain = 0
KPD3 211624Z 24014KT 34/05 A2979 RMK A01 T03430045  RH  016%=      5-min Rain = 0
KPD3 211625Z 25016KT 35/04 A2979 RMK A01 T03450040  RH  015%=      5-min Rain = 0
KPD3 211626Z 25017KT 35/03 A2979 RMK A01 T03450034  RH  014%=      5-min Rain = 0
KPD3 211627Z 24014KT 34/03 A2979 RMK A01 T03440029  RH  014%=      5-min Rain = 0
KPD3 211628Z 25014KT 34/04 A2979 RMK A01 T03440038  RH  015%=      5-min Rain = 0
KPD3 211629Z 25017KT 34/03 A2979 RMK A01 T03440033  RH  014%=      5-min Rain = 0
KPD3 211630Z 25018KT 35/03 A2979 RMK A01 T03450028  RH  014%=      5-min Rain = 0
KPD3 211631Z 25014KT 34/03 A2979 RMK A01 T03440027  RH  014%=      5-min Rain = 0
KPD3 211632Z 25017KT 35/04 A2979 RMK A01 T03450040  RH  015%=      5-min Rain = 0
KPD3 211633Z 25017KT 35/03 A2979 RMK A01 T03460032  RH  014%=      5-min Rain = 0
KPD3 211634Z 25013G18KT 35/05 A2979 RMK A01 T03460046  RH  015%=      5-min Rain = 0
KPD3 211635Z 25016KT 35/04 A2979 RMK A01 T03490036  RH  014%=      5-min Rain = 0
KPD3 211636Z 24016KT 35/03 A2979 RMK A01 T03490033  RH  014%=      5-min Rain = 0
KPD3 211637Z 25016KT 35/04 A2979 RMK A01 T03490038  RH  014%=      5-min Rain = 0
KPD3 211638Z 25015KT 35/04 A2979 RMK A01 T03500039  RH  014%=      5-min Rain = 0
KPD3 211639Z 25017KT 35/04 A2979 RMK A01 T03500036  RH  014%=      5-min Rain = 0
KPD3 211640Z 25016KT 35/03 A2979 RMK A01 T03500029  RH  013%=      5-min Rain = 0
KPD3 211641Z 25015KT 35/03 A2979 RMK A01 T03490031  RH  014%=      5-min Rain = 0
KPD3 211642Z 25015KT 35/04 A2979 RMK A01 T03490035  RH  014%=      5-min Rain = 0
KPD3 211643Z 25012KT 35/05 A2979 RMK A01 T03500045  RH  015%=      5-min Rain = 0
KPD3 211644Z 25013KT 35/04 A2979 RMK A01 T03500040  RH  014%=      5-min Rain = 0
KPD3 211645Z 25011KT 35/05 A2979 RMK A01 T03500052  RH  016%=      5-min Rain = 0
KPD3 211646Z 25010KT 35/06 A2979 RMK A01 T03530055  RH  016%=      5-min Rain = 0
KPD3 211647Z 24012G17KT 35/05 A2979 RMK A01 T03530049  RH  015%=      5-min Rain = 0
KPD3 211648Z 24015KT 35/04 A2979 RMK A01 T03540039  RH  014%=      5-min Rain = 0
KPD3 211649Z 24013KT 35/05 A2979 RMK A01 T03540046  RH  015%=      5-min Rain = 0
KPD3 211650Z 24016KT 36/05 A2979 RMK A01 T03550049  RH  015%=      5-min Rain = 0
KPD3 211651Z 24015KT 36/04 A2979 RMK A01 T03550043  RH  014%=      5-min Rain = 0
KPD3 211652Z 25015KT 36/04 A2979 RMK A01 T03550040  RH  014%=      5-min Rain = 0
KPD3 211653Z 24013KT 35/04 A298 RMK A01 T03530041  RH  014%=      5-min Rain = 0
KPD3 211654Z 24011KT 35/04 A2979 RMK A01 T03520037  RH  014%=      5-min Rain = 0
KPD3 211655Z 24014KT 35/05 A2979 RMK A01 T03520045  RH  015%=      5-min Rain = 0
KPD3 211656Z 24017KT 35/04 A2979 RMK A01 T03540043  RH  014%=      5-min Rain = 0
KPD3 211657Z 24014KT 36/04 A2979 RMK A01 T03550036  RH  014%=      5-min Rain = 0
KPD3 211658Z 25014KT 36/04 A2979 RMK A01 T03550042  RH  014%=      5-min Rain = 0
KPD3 211659Z 25016KT 36/04 A2979 RMK A01 T03550035  RH  014%=      5-min Rain = 0
KPD3 211700Z 25013KT 35/03 A2979 RMK A01 T03540034  RH  014%=      5-min Rain = 0
KPD3 211701Z 25014KT 35/03 A2979 RMK A01 T03540031  RH  013%=      5-min Rain = 0
KPD3 211702Z 26015KT 35/04 A2979 RMK A01 T03540042  RH  014%=      5-min Rain = 0
KPD3 211703Z 26013KT 36/04 A2979 RMK A01 T03550043  RH  014%=      5-min Rain = 0
KPD3 211704Z 26012KT 36/04 A2979 RMK A01 T03550038  RH  014%=      5-min Rain = 0
KPD3 211705Z 26014KT 36/04 A2979 RMK A01 T03550039  RH  014%=      5-min Rain = 0
KPD3 211706Z 26013KT 35/04 A2979 RMK A01 T03540038  RH  014%=      5-min Rain = 0
KPD3 211707Z 27013KT 35/04 A2979 RMK A01 T03530037  RH  014%=      5-min Rain = 0
KPD3 211708Z 25014KT 35/04 A2979 RMK A01 T03530043  RH  014%=      5-min Rain = 0
KPD3 211709Z 25016KT 36/04 A2979 RMK A01 T03560037  RH  014%=      5-min Rain = 0
KPD3 211710Z 25012KT 36/03 A2979 RMK A01 T03570030  RH  013%=      5-min Rain = 0
KPD3 211711Z 25012KT 36/04 A2979 RMK A01 T03570044  RH  014%=      5-min Rain = 0
KPD3 211712Z 26014KT 36/04 A2979 RMK A01 T03580041  RH  014%=      5-min Rain = 0
KPD3 211713Z 26016KT 36/03 A2979 RMK A01 T03570033  RH  013%=      5-min Rain = 0
KPD3 211714Z 26014KT 36/04 A2979 RMK A01 T03560036  RH  014%=      5-min Rain = 0
KPD3 211715Z 26014KT 36/03 A2979 RMK A01 T03560034  RH  013%=      5-min Rain = 0
KPD3 211716Z 26013KT 36/04 A2979 RMK A01 T03550040  RH  014%=      5-min Rain = 0
KPD3 211717Z 26012KT 36/03 A2979 RMK A01 T03560033  RH  013%=      5-min Rain = 0
KPD3 211718Z 24012KT 36/04 A2979 RMK A01 T03570038  RH  014%=      5-min Rain = 0
KPD3 211719Z 23015KT 36/04 A2979 RMK A01 T03590037  RH  013%=      5-min Rain = 0
KPD3 211720Z 24015KT 36/03 A2979 RMK A01 T03590033  RH  013%=      5-min Rain = 0
KPD3 211721Z 24014KT 36/04 A2979 RMK A01 T03590038  RH  014%=      5-min Rain = 0
KPD3 211722Z 24013KT 36/04 A2979 RMK A01 T03610036  RH  013%=      5-min Rain = 0
KPD3 211723Z 25013KT 36/04 A2979 RMK A01 T03610038  RH  013%=      5-min Rain = 0
KPD3 211724Z 25013KT 36/03 A2979 RMK A01 T03610033  RH  013%=      5-min Rain = 0
KPD3 211725Z 26015KT 36/04 A2979 RMK A01 T03600042  RH  014%=      5-min Rain = 0
KPD3 211726Z 25011KT 36/04 A2979 RMK A01 T03600042  RH  014%=      5-min Rain = 0
KPD3 211727Z 26009KT 36/03 A2979 RMK A01 T03590026  RH  013%=      5-min Rain = 0
KPD3 211728Z 25011KT 36/04 A2979 RMK A01 T03590041  RH  014%=      5-min Rain = 0
KPD3 211729Z 24013KT 36/05 A2979 RMK A01 T03610046  RH  014%=      5-min Rain = 0
KPD3 211730Z 24015KT 37/04 A2979 RMK A01 T03650036  RH  013%=      5-min Rain = 0
KPD3 211731Z 23015KT 37/04 A2979 RMK A01 T03650037  RH  013%=      5-min Rain = 0
KPD3 211732Z 23016KT 37/04 A2979 RMK A01 T03650037  RH  013%=      5-min Rain = 0
KPD3 211733Z 22017KT 37/03 A2979 RMK A01 T03650033  RH  013%=      5-min Rain = 0
KPD3 211734Z 23015KT 36/03 A2979 RMK A01 T03640029  RH  012%=      5-min Rain = 0
KPD3 211735Z 21012KT 37/03 A2979 RMK A01 T03650033  RH  013%=      5-min Rain = 0
KPD3 211736Z 21012KT 37/04 A2979 RMK A01 T03660038  RH  013%=      5-min Rain = 0
KPD3 211737Z 23010KT 37/04 A2979 RMK A01 T03670044  RH  014%=      5-min Rain = 0
KPD3 211738Z 23011KT 37/05 A2979 RMK A01 T03690048  RH  014%=      5-min Rain = 0
KPD3 211739Z 24010KT 37/05 A2979 RMK A01 T03690051  RH  014%=      5-min Rain = 0
KPD3 211740Z 23012KT 37/05 A2979 RMK A01 T03700048  RH  014%=      5-min Rain = 0
KPD3 211741Z 23012KT 37/03 A2979 RMK A01 T03690028  RH  012%=      5-min Rain = 0
KPD3 211742Z 23012KT 37/03 A2979 RMK A01 T03670032  RH  012%=      5-min Rain = 0
KPD3 211743Z 23012KT 37/04 A2979 RMK A01 T03660040  RH  013%=      5-min Rain = 0
KPD3 211744Z 23017G22KT 37/04 A2979 RMK A01 T03680042  RH  013%=      5-min Rain = 0
KPD3 211745Z 22015KT 37/03 A2979 RMK A01 T03710025  RH  012%=      5-min Rain = 0
KPD3 211746Z 22016KT 37/03 A2979 RMK A01 T03700026  RH  012%=      5-min Rain = 0
KPD3 211747Z 23015KT 37/03 A2979 RMK A01 T03700034  RH  012%=      5-min Rain = 0
KPD3 211748Z 23013KT 37/03 A2979 RMK A01 T03700031  RH  012%=      5-min Rain = 0
KPD3 211749Z 24019G24KT 37/03 A2979 RMK A01 T03700028  RH  012%=      5-min Rain = 0
KPD3 211750Z 24020KT 37/02 A2979 RMK A01 T03690015  RH  011%=      5-min Rain = 0
KPD3 211751Z 25017KT 37/02 A2979 RMK A01 T03680018  RH  011%=      5-min Rain = 0
KPD3 211752Z 25019KT 37/02 A2979 RMK A01 T03680016  RH  011%=      5-min Rain = 0
KPD3 211753Z 25013KT 37/02 A2979 RMK A01 T03680022  RH  012%=      5-min Rain = 0
KPD3 211754Z 25015G21KT 37/03 A2979 RMK A01 T03700033  RH  012%=      5-min Rain = 0
KPD3 211755Z 25019KT 37/03 A2979 RMK A01 T03700025  RH  012%=      5-min Rain = 0
KPD3 211756Z 25021KT 37/02 A2979 RMK A01 T03700020  RH  011%=      5-min Rain = 0
KPD3 211757Z 24016KT 37/02 A2979 RMK A01 T03680022  RH  012%=      5-min Rain = 0
KPD3 211758Z 24015KT 37/04 A2979 RMK A01 T03690038  RH  013%=      5-min Rain = 0
KPD3 211759Z 24015KT 37/03 A2979 RMK A01 T03710026  RH  012%=      5-min Rain = 0
KPD3 211800Z 24016KT 37/03 A2979 RMK A01 T03700032  RH  012%=      5-min Rain = 0
KPD3 211801Z 24017KT 37/02 A2978 RMK A01 T03700022  RH  011%=      5-min Rain = 0
KPD3 211802Z 24017KT 37/02 A2979 RMK A01 T03680024  RH  012%=      5-min Rain = 0
KPD3 211803Z 23017KT 37/03 A2978 RMK A01 T03670028  RH  012%=      5-min Rain = 0
KPD3 211804Z 23016KT 37/04 A2978 RMK A01 T03690036  RH  013%=      5-min Rain = 0
KPD3 211805Z 24016KT 37/03 A2978 RMK A01 T03710033  RH  012%=      5-min Rain = 0
KPD3 211806Z 25017KT 37/03 A2978 RMK A01 T03710026  RH  012%=      5-min Rain = 0
KPD3 211807Z 24018KT 37/03 A2978 RMK A01 T03690027  RH  012%=      5-min Rain = 0
KPD3 211808Z 23016KT 37/03 A2978 RMK A01 T03690026  RH  012%=      5-min Rain = 0
KPD3 211809Z 23013KT 37/03 A2978 RMK A01 T03690032  RH  012%=      5-min Rain = 0
KPD3 211810Z 24013KT 37/04 A2978 RMK A01 T03710038  RH  013%=      5-min Rain = 0
KPD3 211811Z 24010KT 37/04 A2978 RMK A01 T03720043  RH  013%=      5-min Rain = 0
KPD3 211812Z 24014KT 37/04 A2978 RMK A01 T03740037  RH  012%=      5-min Rain = 0
KPD3 211813Z 25015KT 37/04 A2978 RMK A01 T03740037  RH  012%=      5-min Rain = 0
KPD3 211814Z 25014KT 37/03 A2978 RMK A01 T03740033  RH  012%=      5-min Rain = 0
KPD3 211815Z 26014KT 37/04 A2978 RMK A01 T03730036  RH  012%=      5-min Rain = 0
KPD3 211816Z 24012KT 37/04 A2978 RMK A01 T03720042  RH  013%=      5-min Rain = 0
KPD3 211817Z 24010KT 37/03 A2978 RMK A01 T03730029  RH  012%=      5-min Rain = 0
KPD3 211818Z 26010KT 37/05 A2978 RMK A01 T03720045  RH  013%=      5-min Rain = 0
KPD3 211819Z 26012KT 37/04 A2978 RMK A01 T03720035  RH  012%=      5-min Rain = 0
KPD3 211820Z 24009KT 37/04 A2978 RMK A01 T03710037  RH  013%=      5-min Rain = 0
KPD3 211821Z 23013KT 37/05 A2978 RMK A01 T03730047  RH  013%=      5-min Rain = 0
KPD3 211822Z 22016KT 38/04 A2977 RMK A01 T03760043  RH  013%=      5-min Rain = 0
KPD3 211823Z 24012KT 38/05 A2978 RMK A01 T03780049  RH  013%=      5-min Rain = 0
KPD3 211824Z 25013KT 38/05 A2978 RMK A01 T03800046  RH  013%=      5-min Rain = 0
KPD3 211825Z 26013G18KT 38/04 A2977 RMK A01 T03790041  RH  012%=      5-min Rain = 0
KPD3 211826Z 26015KT 38/03 A2977 RMK A01 T03750032  RH  012%=      5-min Rain = 0
KPD3 211827Z 25014KT 37/04 A2977 RMK A01 T03730036  RH  012%=      5-min Rain = 0
KPD3 211828Z 25015KT 37/03 A2977 RMK A01 T03740025  RH  011%=      5-min Rain = 0
KPD3 211829Z 24014G19KT 37/02 A2977 RMK A01 T03740023  RH  011%=      5-min Rain = 0
KPD3 211830Z 22014G21KT 38/04 A2977 RMK A01 T03760042  RH  013%=      5-min Rain = 0
KPD3 211831Z 23012G17KT 38/03 A2977 RMK A01 T03790034  RH  012%=      5-min Rain = 0
KPD3 211832Z 23012G17KT 38/04 A2977 RMK A01 T03780042  RH  013%=      5-min Rain = 0
KPD3 211833Z 22013KT 38/05 A2977 RMK A01 T03810046  RH  013%=      5-min Rain = 0
KPD3 211834Z 21012KT 38/04 A2977 RMK A01 T03820039  RH  012%=      5-min Rain = 0
KPD3 211835Z 22012KT 38/03 A2977 RMK A01 T03820031  RH  011%=      5-min Rain = 0
KPD3 211836Z 22018KT 38/03 A2977 RMK A01 T03810031  RH  011%=      5-min Rain = 0
KPD3 211837Z 23018KT 38/03 A2977 RMK A01 T03800034  RH  012%=      5-min Rain = 0
KPD3 211838Z 22012KT 38/03 A2977 RMK A01 T03790030  RH  011%=      5-min Rain = 0
KPD3 211839Z 23011G16KT 38/03 A2977 RMK A01 T03790029  RH  011%=      5-min Rain = 0
KPD3 211840Z 24011KT 38/04 A2977 RMK A01 T03790036  RH  012%=      5-min Rain = 0
KPD3 211841Z 23011KT 38/03 A2977 RMK A01 T03790033  RH  012%=      5-min Rain = 0
KPD3 211842Z 22010KT 38/03 A2977 RMK A01 T03780030  RH  012%=      5-min Rain = 0
KPD3 211843Z 22011KT 38/04 A2977 RMK A01 T03790038  RH  012%=      5-min Rain = 0
KPD3 211844Z 22013KT 38/04 A2977 RMK A01 T03800041  RH  012%=      5-min Rain = 0
KPD3 211845Z 21019KT 38/04 A2977 RMK A01 T03810037  RH  012%=      5-min Rain = 0
KPD3 211846Z 22017KT 38/03 A2977 RMK A01 T03820029  RH  011%=      5-min Rain = 0
KPD3 211847Z 22014KT 38/02 A2977 RMK A01 T03810024  RH  011%=      5-min Rain = 0
KPD3 211848Z 24014KT 38/03 A2977 RMK A01 T03800034  RH  012%=      5-min Rain = 0
KPD3 211849Z 24013KT 38/03 A2977 RMK A01 T03810030  RH  011%=      5-min Rain = 0
KPD3 211850Z 22013KT 38/03 A2977 RMK A01 T03800029  RH  011%=      5-min Rain = 0
KPD3 211851Z 22014KT 38/03 A2977 RMK A01 T03800029  RH  011%=      5-min Rain = 0
KPD3 211852Z 23011KT 38/04 A2977 RMK A01 T03810035  RH  012%=      5-min Rain = 0
KPD3 211853Z 22014G20KT 38/03 A2977 RMK A01 T03820031  RH  011%=      5-min Rain = 0
KPD3 211854Z 25012KT 38/04 A2977 RMK A01 T03830044  RH  012%=      5-min Rain = 0
KPD3 211855Z 24014KT 38/05 A2977 RMK A01 T03840045  RH  012%=      5-min Rain = 0
KPD3 211856Z 22014G19KT 39/04 A2977 RMK A01 T03850036  RH  012%=      5-min Rain = 0
KPD3 211857Z 21017G22KT 38/03 A2977 RMK A01 T03840032  RH  011%=      5-min Rain = 0
KPD3 211858Z 22018KT 38/03 A2977 RMK A01 T03840026  RH  011%=      5-min Rain = 0
KPD3 211859Z 22021KT 38/02 A2976 RMK A01 T03840020  RH  010%=      5-min Rain = 0
KPD3 211900Z 22017KT 38/02 A2976 RMK A01 T03830024  RH  011%=      5-min Rain = 0
KPD3 211901Z 21016KT 39/04 A2976 RMK A01 T03850038  RH  012%=      5-min Rain = 0
KPD3 211902Z 21018KT 39/03 A2976 RMK A01 T03870029  RH  011%=      5-min Rain = 0
KPD3 211903Z 21016KT 39/03 A2976 RMK A01 T03870025  RH  011%=      5-min Rain = 0
KPD3 211904Z 23015KT 39/03 A2976 RMK A01 T03860032  RH  011%=      5-min Rain = 0
KPD3 211905Z 22018KT 39/03 A2976 RMK A01 T03870032  RH  011%=      5-min Rain = 0
KPD3 211906Z 20020KT 39/02 A2976 RMK A01 T03860024  RH  011%=      5-min Rain = 0
KPD3 211907Z 21017KT 39/03 A2976 RMK A01 T03850026  RH  011%=      5-min Rain = 0
KPD3 211908Z 22015KT 39/03 A2976 RMK A01 T03850028  RH  011%=      5-min Rain = 0
KPD3 211909Z 22014KT 39/03 A2976 RMK A01 T03850029  RH  011%=      5-min Rain = 0
KPD3 211910Z 22012KT 38/03 A2976 RMK A01 T03840027  RH  011%=      5-min Rain = 0
KPD3 211911Z 22011KT 38/04 A2976 RMK A01 T03840035  RH  012%=      5-min Rain = 0
KPD3 211912Z 22009KT 39/03 A2976 RMK A01 T03850031  RH  011%=      5-min Rain = 0
KPD3 211913Z 22011KT 39/04 A2976 RMK A01 T03850035  RH  012%=      5-min Rain = 0
KPD3 211914Z 22013KT 39/02 A2976 RMK A01 T03850024  RH  011%=      5-min Rain = 0
KPD3 211915Z 22019KT 39/02 A2976 RMK A01 T03850023  RH  011%=      5-min Rain = 0
KPD3 211916Z 22017KT 39/03 A2976 RMK A01 T03850029  RH  011%=      5-min Rain = 0
KPD3 211917Z 24016KT 39/03 A2976 RMK A01 T03860028  RH  011%=      5-min Rain = 0
KPD3 211918Z 24013KT 39/03 A2976 RMK A01 T03860028  RH  011%=      5-min Rain = 0
KPD3 211919Z 22017KT 39/02 A2976 RMK A01 T03860020  RH  010%=      5-min Rain = 0
KPD3 211920Z 21015KT 38/02 A2976 RMK A01 T03840019  RH  010%=      5-min Rain = 0
KPD3 211921Z 22015KT 38/03 A2976 RMK A01 T03840031  RH  011%=      5-min Rain = 0
KPD3 211922Z 22015KT 39/02 A2976 RMK A01 T03860021  RH  010%=      5-min Rain = 0
KPD3 211923Z 22015KT 39/02 A2976 RMK A01 T03850023  RH  011%=      5-min Rain = 0
KPD3 211924Z 23011KT 38/02 A2976 RMK A01 T03840016  RH  010%=      5-min Rain = 0
KPD3 211925Z 24012KT 38/02 A2975 RMK A01 T03830024  RH  011%=      5-min Rain = 0
KPD3 211926Z 23010KT 38/02 A2975 RMK A01 T03840021  RH  011%=      5-min Rain = 0
KPD3 211927Z 22013G18KT 39/03 A2975 RMK A01 T03850030  RH  011%=      5-min Rain = 0
KPD3 211928Z 22018KT 39/03 A2975 RMK A01 T03890029  RH  011%=      5-min Rain = 0
KPD3 211929Z 22018KT 39/02 A2975 RMK A01 T03890021  RH  010%=      5-min Rain = 0
KPD3 211930Z 21019KT 39/01 A2975 RMK A01 T03890014  RH  010%=      5-min Rain = 0
KPD3 211931Z 22019KT 39/02 A2975 RMK A01 T03880017  RH  010%=      5-min Rain = 0
KPD3 211932Z 22018KT 39/02 A2975 RMK A01 T03870015  RH  010%=      5-min Rain = 0
KPD3 211933Z 23017KT 39/02 A2975 RMK A01 T03860016  RH  010%=      5-min Rain = 0
KPD3 211934Z 21018KT 39/02 A2975 RMK A01 T03860021  RH  010%=      5-min Rain = 0
KPD3 211935Z 22014KT 39/02 A2975 RMK A01 T03860018  RH  010%=      5-min Rain = 0
KPD3 211936Z 21011KT 39/02 A2975 RMK A01 T03860018  RH  010%=      5-min Rain = 0
KPD3 211937Z 19011KT 39/02 A2975 RMK A01 T03850022  RH  011%=      5-min Rain = 0
KPD3 211938Z 19012KT 39/03 A2975 RMK A01 T03870033  RH  011%=      5-min Rain = 0
KPD3 211939Z 18013KT 39/02 A2975 RMK A01 T03880023  RH  010%=      5-min Rain = 0
KPD3 211940Z 19014KT 39/03 A2975 RMK A01 T03880030  RH  011%=      5-min Rain = 0
KPD3 211941Z 20015KT 39/02 A2975 RMK A01 T03890023  RH  010%=      5-min Rain = 0
KPD3 211942Z 21011KT 39/02 A2975 RMK A01 T03880022  RH  010%=      5-min Rain = 0
KPD3 211943Z 20014KT 39/02 A2975 RMK A01 T03890023  RH  010%=      5-min Rain = 0
KPD3 211944Z 18017KT 39/03 A2975 RMK A01 T03900025  RH  010%=      5-min Rain = 0
KPD3 211945Z 19015KT 39/03 A2975 RMK A01 T03910025  RH  010%=      5-min Rain = 0
KPD3 211946Z 20015KT 39/02 A2975 RMK A01 T03910021  RH  010%=      5-min Rain = 0
KPD3 211947Z 20014KT 39/03 A2975 RMK A01 T03910029  RH  011%=      5-min Rain = 0
KPD3 211948Z 22014KT 39/03 A2975 RMK A01 T03920025  RH  010%=      5-min Rain = 0
KPD3 211949Z 21013KT 39/02 A2975 RMK A01 T03900017  RH  010%=      5-min Rain = 0
KPD3 211950Z 19011G16KT 39/04 A2975 RMK A01 T03900039  RH  012%=      5-min Rain = 0
KPD3 211951Z 21020G26KT 39/03 A2975 RMK A01 T03940025  RH  010%=      5-min Rain = 0
KPD3 211952Z 22022KT 39/00 A2975 RMK A01 T03940003  RH  009%=      5-min Rain = 0
KPD3 211953Z 22021G26KT 39/01 A2975 RMK A01 T03910010  RH  009%=      5-min Rain = 0
KPD3 211954Z 22015KT 39/01 A2975 RMK A01 T03900009  RH  009%=      5-min Rain = 0
KPD3 211955Z 22015KT 39/02 A2975 RMK A01 T03890017  RH  010%=      5-min Rain = 0
KPD3 211956Z 22015KT 39/01 A2975 RMK A01 T03890013  RH  010%=      5-min Rain = 0
KPD3 211957Z 22013KT 39/01 A2975 RMK A01 T03890014  RH  010%=      5-min Rain = 0
KPD3 211958Z 22014KT 39/02 A2975 RMK A01 T03890020  RH  010%=      5-min Rain = 0
KPD3 211959Z 22013KT 39/02 A2975 RMK A01 T03900023  RH  010%=      5-min Rain = 0
KPD3 212000Z 23010KT 39/04 A2975 RMK A01 T03930043  RH  012%=      5-min Rain = 0
KPD3 212001Z 23012KT 40/04 A2975 RMK A01 T03960035  RH  011%=      5-min Rain = 0
KPD3 212002Z 22011G17KT 40/03 A2974 RMK A01 T03960025  RH  010%=      5-min Rain = 0
KPD3 212003Z 23010KT 40/04 A2974 RMK A01 T03950035  RH  011%=      5-min Rain = 0
KPD3 212004Z 24016KT 40/03 A2975 RMK A01 T03960030  RH  010%=      5-min Rain = 0
KPD3 212005Z 23016KT 40/01 A2975 RMK A01 T03950014  RH  009%=      5-min Rain = 0
KPD3 212006Z 23018KT 40/02 A2975 RMK A01 T03950015  RH  009%=      5-min Rain = 0
KPD3 212007Z 23016KT 39/01 A2975 RMK A01 T03930013  RH  009%=      5-min Rain = 0
KPD3 212008Z 22015G20KT 39/03 A2975 RMK A01 T03940030  RH  011%=      5-min Rain = 0
KPD3 212009Z 22015KT 40/03 A2975 RMK A01 T03960029  RH  010%=      5-min Rain = 0
KPD3 212010Z 24015KT 40/02 A2975 RMK A01 T03970023  RH  010%=      5-min Rain = 0
KPD3 212011Z 22015KT 39/01 A2975 RMK A01 T03940013  RH  009%=      5-min Rain = 0
KPD3 212012Z 22011KT 39/02 A2975 RMK A01 T03930017  RH  010%=      5-min Rain = 0
KPD3 212013Z 23011KT 39/03 A2975 RMK A01 T03930034  RH  011%=      5-min Rain = 0
KPD3 212014Z 25015KT 39/03 A2975 RMK A01 T03940029  RH  010%=      5-min Rain = 0
KPD3 212015Z 25014KT 39/02 A2974 RMK A01 T03930021  RH  010%=      5-min Rain = 0
KPD3 212016Z 25015KT 39/03 A2974 RMK A01 T03920026  RH  010%=      5-min Rain = 0
KPD3 212017Z 25013KT 39/02 A2974 RMK A01 T03920019  RH  010%=      5-min Rain = 0
KPD3 212018Z 24014KT 39/03 A2974 RMK A01 T03920032  RH  011%=      5-min Rain = 0
KPD3 212019Z 21015G21KT 40/04 A2974 RMK A01 T03950038  RH  011%=      5-min Rain = 0
KPD3 212020Z 21019G24KT 40/02 A2974 RMK A01 T03960015  RH  009%=      5-min Rain = 0
KPD3 212021Z 23017KT 39/02 A2975 RMK A01 T03940021  RH  010%=      5-min Rain = 0
KPD3 212022Z 23017KT 39/01 A2974 RMK A01 T03940014  RH  009%=      5-min Rain = 0
KPD3 212023Z 21016KT 39/02 A2974 RMK A01 T03930020  RH  010%=      5-min Rain = 0
KPD3 212024Z 23015KT 39/01 A2974 RMK A01 T03930012  RH  009%=      5-min Rain = 0
KPD3 212025Z 25017KT 39/01 A2974 RMK A01 T03910014  RH  010%=      5-min Rain = 0
KPD3 212026Z 23015KT 39/02 A2974 RMK A01 T03910016  RH  010%=      5-min Rain = 0
KPD3 212027Z 23012KT 39/01 A2974 RMK A01 T03910008  RH  009%=      5-min Rain = 0
KPD3 212028Z 22015G20KT 39/02 A2974 RMK A01 T03910017  RH  010%=      5-min Rain = 0
KPD3 212029Z 21015KT 39/02 A2974 RMK A01 T03930021  RH  010%=      5-min Rain = 0
KPD3 212030Z 23014KT 39/02 A2974 RMK A01 T03940017  RH  010%=      5-min Rain = 0
KPD3 212031Z 22016KT 39/03 A2974 RMK A01 T03940027  RH  010%=      5-min Rain = 0
KPD3 212032Z 23017KT 40/02 A2974 RMK A01 T03950020  RH  010%=      5-min Rain = 0
KPD3 212033Z 24016KT 40/02 A2974 RMK A01 T03950021  RH  010%=      5-min Rain = 0
KPD3 212034Z 23016KT 40/02 A2974 RMK A01 T03950023  RH  010%=      5-min Rain = 0
KPD3 212035Z 23012KT 40/03 A2974 RMK A01 T03960029  RH  010%=      5-min Rain = 0
KPD3 212036Z 23013G18KT 40/04 A2975 RMK A01 T03970043  RH  011%=      5-min Rain = 0
KPD3 212037Z 21018KT 40/02 A2975 RMK A01 T03980019  RH  010%=      5-min Rain = 0
KPD3 212038Z 20018G25KT 40/02 A2975 RMK A01 T03950015  RH  010%=      5-min Rain = 0
KPD3 212039Z 21016KT 39/02 A2974 RMK A01 T03940016  RH  010%=      5-min Rain = 0
KPD3 212040Z 20016G21KT 39/03 A2974 RMK A01 T03940029  RH  011%=      5-min Rain = 0
KPD3 212041Z 19019G24KT 40/02 A2974 RMK A01 T03960022  RH  010%=      5-min Rain = 0
KPD3 212042Z 19021KT 40/02 A2974 RMK A01 T03960015  RH  009%=      5-min Rain = 0
KPD3 212043Z 20017G22KT 39/01 A2974 RMK A01 T03930013  RH  009%=      5-min Rain = 0
KPD3 212044Z 19016KT 39/02 A2974 RMK A01 T03920017  RH  010%=      5-min Rain = 0
KPD3 212045Z 19013KT 39/02 A2974 RMK A01 T03920022  RH  010%=      5-min Rain = 0
KPD3 212046Z 20017KT 39/02 A2974 RMK A01 T03940020  RH  010%=      5-min Rain = 0
KPD3 212047Z 20013KT 39/02 A2974 RMK A01 T03930022  RH  010%=      5-min Rain = 0
KPD3 212048Z 22017KT 40/03 A2974 RMK A01 T03950027  RH  010%=      5-min Rain = 0
KPD3 212049Z 23020KT 39/02 A2974 RMK A01 T03940016  RH  010%=      5-min Rain = 0
KPD3 212050Z 22016KT 39/02 A2974 RMK A01 T03930022  RH  010%=      5-min Rain = 0
KPD3 212051Z 22018G23KT 40/03 A2974 RMK A01 T03950033  RH  011%=      5-min Rain = 0
KPD3 212052Z 22020KT 40/02 A2974 RMK A01 T03950018  RH  010%=      5-min Rain = 0
KPD3 212053Z 23017KT 39/02 A2974 RMK A01 T03930018  RH  010%=      5-min Rain = 0
KPD3 212054Z 23017KT 39/02 A2974 RMK A01 T03920021  RH  010%=      5-min Rain = 0
KPD3 212055Z 22016G21KT 39/02 A2974 RMK A01 T03910017  RH  010%=      5-min Rain = 0
KPD3 212056Z 22013G18KT 39/03 A2974 RMK A01 T03910030  RH  011%=      5-min Rain = 0
KPD3 212057Z 22015KT 39/03 A2974 RMK A01 T03940029  RH  011%=      5-min Rain = 0
KPD3 212058Z 21016KT 39/02 A2974 RMK A01 T03940023  RH  010%=      5-min Rain = 0
KPD3 212059Z 22013KT 39/03 A2974 RMK A01 T03930026  RH  010%=      5-min Rain = 0
KPD3 212100Z 22011KT 39/02 A2974 RMK A01 T03930022  RH  010%=      5-min Rain = 0
KPD3 212101Z 21010KT 39/02 A2974 RMK A01 T03930015  RH  010%=      5-min Rain = 0
KPD3 212102Z 22011KT 39/02 A2974 RMK A01 T03910015  RH  010%=      5-min Rain = 0
KPD3 212103Z 21009KT 39/02 A2974 RMK A01 T03910022  RH  010%=      5-min Rain = 0
KPD3 212104Z 20012KT 39/02 A2974 RMK A01 T03910024  RH  010%=      5-min Rain = 0
KPD3 212105Z 19014KT 39/03 A2974 RMK A01 T03920029  RH  011%=      5-min Rain = 0
KPD3 212106Z 20015KT 39/04 A2974 RMK A01 T03940039  RH  011%=      5-min Rain = 0
KPD3 212107Z 23014KT 40/04 A2974 RMK A01 T03970037  RH  011%=      5-min Rain = 0
KPD3 212108Z 23018KT 40/03 A2974 RMK A01 T03970028  RH  010%=      5-min Rain = 0
KPD3 212109Z 23017KT 40/03 A2974 RMK A01 T03950027  RH  010%=      5-min Rain = 0
KPD3 212110Z 22016KT 39/03 A2974 RMK A01 T03930025  RH  010%=      5-min Rain = 0
KPD3 212111Z 21015KT 39/03 A2974 RMK A01 T03930028  RH  011%=      5-min Rain = 0
KPD3 212112Z 22015KT 39/03 A2974 RMK A01 T03930031  RH  011%=      5-min Rain = 0
KPD3 212113Z 21012KT 40/03 A2974 RMK A01 T03950029  RH  010%=      5-min Rain = 0
KPD3 212114Z 21013KT 40/04 A2974 RMK A01 T03950035  RH  011%=      5-min Rain = 0
KPD3 212115Z 21011KT 40/04 A2974 RMK A01 T03960040  RH  011%=      5-min Rain = 0
KPD3 212116Z 19017G24KT 40/04 A2974 RMK A01 T03990043  RH  011%=      5-min Rain = 0
KPD3 212117Z 19021KT 40/02 A2974 RMK A01 T03990023  RH  010%=      5-min Rain = 0
KPD3 212118Z 20018KT 40/02 A2974 RMK A01 T03960021  RH  010%=      5-min Rain = 0
KPD3 212119Z 21015KT 40/02 A2974 RMK A01 T03950021  RH  010%=      5-min Rain = 0
KPD3 212120Z 21012KT 39/02 A2974 RMK A01 T03940023  RH  010%=      5-min Rain = 0
KPD3 212121Z 20014G21KT 39/03 A2974 RMK A01 T03940030  RH  011%=      5-min Rain = 0
KPD3 212122Z 20020KT 40/03 A2974 RMK A01 T03950029  RH  010%=      5-min Rain = 0
KPD3 212123Z 21017G22KT 40/04 A2974 RMK A01 T03960035  RH  011%=      5-min Rain = 0
KPD3 212124Z 20019G24KT 40/03 A2974 RMK A01 T03980034  RH  011%=      5-min Rain = 0
KPD3 212125Z 20018KT 40/04 A2974 RMK A01 T03980036  RH  011%=      5-min Rain = 0
KPD3 212126Z 19021KT 40/03 A2974 RMK A01 T03970026  RH  010%=      5-min Rain = 0
KPD3 212127Z 19017KT 40/02 A2974 RMK A01 T03950018  RH  010%=      5-min Rain = 0
KPD3 212128Z 19014KT 39/03 A2974 RMK A01 T03930025  RH  010%=      5-min Rain = 0
KPD3 212129Z 19017G22KT 39/03 A2974 RMK A01 T03930031  RH  011%=      5-min Rain = 0
KPD3 212130Z 20017KT 39/03 A2974 RMK A01 T03930025  RH  010%=      5-min Rain = 0
KPD3 212131Z 20014KT 39/03 A2974 RMK A01 T03930030  RH  011%=      5-min Rain = 0
KPD3 212132Z 20017G25KT 39/04 A2974 RMK A01 T03940039  RH  011%=      5-min Rain = 0
KPD3 212133Z 21020G25KT 40/04 A2974 RMK A01 T03970037  RH  011%=      5-min Rain = 0
KPD3 212134Z 21017KT 40/04 A2974 RMK A01 T03970036  RH  011%=      5-min Rain = 0
KPD3 212135Z 21018KT 40/03 A2974 RMK A01 T03970032  RH  011%=      5-min Rain = 0
KPD3 212136Z 20014KT 40/03 A2974 RMK A01 T03950034  RH  011%=      5-min Rain = 0
KPD3 212137Z 22017KT 40/04 A2974 RMK A01 T03960037  RH  011%=      5-min Rain = 0
KPD3 212138Z 22016KT 40/03 A2974 RMK A01 T03950025  RH  010%=      5-min Rain = 0
KPD3 212139Z 22013KT 39/02 A2974 RMK A01 T03930024  RH  010%=      5-min Rain = 0
KPD3 212140Z 20012KT 39/04 A2974 RMK A01 T03920044  RH  012%=      5-min Rain = 0
KPD3 212141Z 20014G20KT 40/04 A2974 RMK A01 T03950043  RH  012%=      5-min Rain = 0
KPD3 212142Z 20017KT 40/03 A2974 RMK A01 T03960033  RH  011%=      5-min Rain = 0
KPD3 212143Z 19018KT 40/03 A2974 RMK A01 T03950032  RH  011%=      5-min Rain = 0
KPD3 212144Z 18017KT 39/03 A2974 RMK A01 T03940029  RH  011%=      5-min Rain = 0
KPD3 212145Z 18017KT 39/03 A2974 RMK A01 T03930033  RH  011%=      5-min Rain = 0
KPD3 212146Z 20014KT 39/04 A2974 RMK A01 T03930036  RH  011%=      5-min Rain = 0
KPD3 212147Z 20013KT 39/04 A2974 RMK A01 T03940038  RH  011%=      5-min Rain = 0
KPD3 212148Z 18013KT 40/04 A2974 RMK A01 T03950042  RH  011%=      5-min Rain = 0
KPD3 212149Z 20013G19KT 40/05 A2974 RMK A01 T03960049  RH  012%=      5-min Rain = 0
KPD3 212150Z 21016KT 40/04 A2974 RMK A01 T03980039  RH  011%=      5-min Rain = 0
KPD3 212151Z 21019KT 40/04 A2974 RMK A01 T03970035  RH  011%=      5-min Rain = 0
KPD3 212152Z 21018KT 40/03 A2974 RMK A01 T03950030  RH  011%=      5-min Rain = 0
KPD3 212153Z 21019G24KT 39/03 A2974 RMK A01 T03940034  RH  011%=      5-min Rain = 0
KPD3 212154Z 22018KT 39/03 A2974 RMK A01 T03930025  RH  010%=      5-min Rain = 0
KPD3 212155Z 22015KT 39/03 A2974 RMK A01 T03910025  RH  010%=      5-min Rain = 0
KPD3 212156Z 22017KT 39/03 A2974 RMK A01 T03910030  RH  011%=      5-min Rain = 0
KPD3 212157Z 22015KT 39/04 A2974 RMK A01 T03910035  RH  011%=      5-min Rain = 0
KPD3 212158Z 22016G24KT 39/04 A2974 RMK A01 T03930040  RH  011%=      5-min Rain = 0
KPD3 212159Z 21017KT 39/03 A2974 RMK A01 T03940032  RH  011%=      5-min Rain = 0
KPD3 212200Z 22016KT 39/03 A2974 RMK A01 T03930029  RH  011%=      5-min Rain = 0
KPD3 212201Z 21014KT 39/03 A2974 RMK A01 T03910031  RH  011%=      5-min Rain = 0
KPD3 212202Z 21017KT 39/04 A2974 RMK A01 T03920037  RH  011%=      5-min Rain = 0
KPD3 212203Z 22014KT 39/03 A2974 RMK A01 T03930034  RH  011%=      5-min Rain = 0
KPD3 212204Z 22015KT 39/03 A2973 RMK A01 T03930032  RH  011%=      5-min Rain = 0
KPD3 212205Z 22014KT 39/03 A2973 RMK A01 T03920033  RH  011%=      5-min Rain = 0
KPD3 212206Z 21017KT 39/03 A2973 RMK A01 T03920032  RH  011%=      5-min Rain = 0
KPD3 212207Z 21014KT 39/02 A2973 RMK A01 T03910024  RH  010%=      5-min Rain = 0
KPD3 212208Z 20012G17KT 39/03 A2973 RMK A01 T03900030  RH  011%=      5-min Rain = 0
KPD3 212209Z 19010KT 39/03 A2973 RMK A01 T03910030  RH  011%=      5-min Rain = 0
KPD3 212210Z 19016G21KT 39/03 A2973 RMK A01 T03910032  RH  011%=      5-min Rain = 0
KPD3 212211Z 21016KT 39/03 A2973 RMK A01 T03910032  RH  011%=      5-min Rain = 0
KPD3 212212Z 21015KT 39/03 A2973 RMK A01 T03920032  RH  011%=      5-min Rain = 0
KPD3 212213Z 21011KT 39/03 A2973 RMK A01 T03920034  RH  011%=      5-min Rain = 0
KPD3 212214Z 21012KT 39/03 A2973 RMK A01 T03920030  RH  011%=      5-min Rain = 0
KPD3 212215Z 21013KT 39/04 A2973 RMK A01 T03920036  RH  011%=      5-min Rain = 0
KPD3 212216Z 22014KT 39/04 A2973 RMK A01 T03920037  RH  011%=      5-min Rain = 0
KPD3 212217Z 20013KT 39/03 A2973 RMK A01 T03920031  RH  011%=      5-min Rain = 0
KPD3 212218Z 20008KT 39/04 A2973 RMK A01 T03920041  RH  012%=      5-min Rain = 0
KPD3 212219Z 22009G14KT 40/05 A2973 RMK A01 T03950052  RH  012%=      5-min Rain = 0
KPD3 212220Z 21012KT 40/06 A2973 RMK A01 T03970055  RH  012%=      5-min Rain = 0
KPD3 212221Z 22017KT 40/04 A2973 RMK A01 T03980040  RH  011%=      5-min Rain = 0
KPD3 212222Z 23016KT 40/04 A2973 RMK A01 T03960039  RH  011%=      5-min Rain = 0
KPD3 212223Z 21017KT 40/04 A2973 RMK A01 T03950040  RH  011%=      5-min Rain = 0
KPD3 212224Z 22016KT 39/04 A2973 RMK A01 T03940039  RH  011%=      5-min Rain = 0
KPD3 212225Z 22014G19KT 39/04 A2973 RMK A01 T03940037  RH  011%=      5-min Rain = 0
KPD3 212226Z 21016G21KT 39/04 A2973 RMK A01 T03930037  RH  011%=      5-min Rain = 0
KPD3 212227Z 21018KT 39/04 A2973 RMK A01 T03930035  RH  011%=      5-min Rain = 0
KPD3 212228Z 21016KT 39/03 A2973 RMK A01 T03920029  RH  011%=      5-min Rain = 0
KPD3 212229Z 22017KT 39/03 A2973 RMK A01 T03920031  RH  011%=      5-min Rain = 0
KPD3 212230Z 21019KT 39/03 A2973 RMK A01 T03920031  RH  011%=      5-min Rain = 0
KPD3 212231Z 22014KT 39/03 A2973 RMK A01 T03900031  RH  011%=      5-min Rain = 0
KPD3 212232Z 23011KT 39/03 A2973 RMK A01 T03900033  RH  011%=      5-min Rain = 0
KPD3 212233Z 21013KT 39/03 A2973 RMK A01 T03910033  RH  011%=      5-min Rain = 0
KPD3 212234Z 21012KT 39/04 A2973 RMK A01 T03910039  RH  011%=      5-min Rain = 0
KPD3 212235Z 20014KT 39/04 A2973 RMK A01 T03920040  RH  012%=      5-min Rain = 0
KPD3 212236Z 21017KT 39/03 A2972 RMK A01 T03930033  RH  011%=      5-min Rain = 0
KPD3 212237Z 21016KT 39/03 A2972 RMK A01 T03920032  RH  011%=      5-min Rain = 0
KPD3 212238Z 21016KT 39/03 A2972 RMK A01 T03920032  RH  011%=      5-min Rain = 0
KPD3 212239Z 22012KT 39/03 A2972 RMK A01 T03910029  RH  011%=      5-min Rain = 0
KPD3 212240Z 22011KT 39/04 A2972 RMK A01 T03910042  RH  012%=      5-min Rain = 0
KPD3 212241Z 21014KT 39/03 A2972 RMK A01 T03910030  RH  011%=      5-min Rain = 0
KPD3 212242Z 21010KT 39/04 A2972 RMK A01 T03910037  RH  011%=      5-min Rain = 0
KPD3 212243Z 21011KT 39/04 A2972 RMK A01 T03920044  RH  012%=      5-min Rain = 0
KPD3 212244Z 20010KT 39/04 A2972 RMK A01 T03930035  RH  011%=      5-min Rain = 0
KPD3 212245Z 19012KT 39/05 A2972 RMK A01 T03930045  RH  012%=      5-min Rain = 0
KPD3 212246Z 19011G17KT 39/05 A2972 RMK A01 T03930045  RH  012%=      5-min Rain = 0
KPD3 212247Z 18016KT 39/05 A2972 RMK A01 T03940045  RH  012%=      5-min Rain = 0
KPD3 212248Z 19014KT 39/04 A2972 RMK A01 T03930036  RH  011%=      5-min Rain = 0
KPD3 212249Z 19013KT 39/03 A2972 RMK A01 T03920033  RH  011%=      5-min Rain = 0
KPD3 212250Z 20010KT 39/03 A2972 RMK A01 T03910033  RH  011%=      5-min Rain = 0
KPD3 212251Z 19010KT 39/04 A2972 RMK A01 T03910041  RH  012%=      5-min Rain = 0
KPD3 212252Z 19010KT 39/04 A2972 RMK A01 T03910042  RH  012%=      5-min Rain = 0
KPD3 212253Z 21011KT 39/04 A2972 RMK A01 T03920043  RH  012%=      5-min Rain = 0
KPD3 212254Z 20010KT 39/03 A2972 RMK A01 T03930034  RH  011%=      5-min Rain = 0
KPD3 212255Z 22010KT 39/04 A2972 RMK A01 T03920039  RH  011%=      5-min Rain = 0
KPD3 212256Z 22012KT 39/05 A2972 RMK A01 T03920046  RH  012%=      5-min Rain = 0
KPD3 212257Z 21014KT 39/03 A2972 RMK A01 T03930034  RH  011%=      5-min Rain = 0
KPD3 212258Z 23013KT 39/03 A2972 RMK A01 T03920033  RH  011%=      5-min Rain = 0
KPD3 212259Z 22014KT 39/04 A2972 RMK A01 T03920037  RH  011%=      5-min Rain = 0
KPD3 212300Z 22011KT 39/04 A2972 RMK A01 T03920042  RH  012%=      5-min Rain = 0
KPD3 212301Z 22009KT 39/06 A2972 RMK A01 T03930057  RH  013%=      5-min Rain = 0
KPD3 212302Z 22009KT 39/05 A2972 RMK A01 T03940048  RH  012%=      5-min Rain = 0
KPD3 212303Z 23008KT 39/06 A2972 RMK A01 T03940056  RH  013%=      5-min Rain = 0
KPD3 212304Z 23010G15KT 40/05 A2972 RMK A01 T03950048  RH  012%=      5-min Rain = 0
KPD3 212305Z 23011KT 40/05 A2972 RMK A01 T03950052  RH  012%=      5-min Rain = 0
KPD3 212306Z 22013G18KT 40/05 A2972 RMK A01 T03950049  RH  012%=      5-min Rain = 0
KPD3 212307Z 23015KT 40/05 A2972 RMK A01 T03950047  RH  012%=      5-min Rain = 0
KPD3 212308Z 23014G19KT 39/04 A2972 RMK A01 T03940042  RH  012%=      5-min Rain = 0
KPD3 212309Z 23013G18KT 39/04 A2972 RMK A01 T03920042  RH  012%=      5-min Rain = 0
KPD3 212310Z 22015KT 39/04 A2971 RMK A01 T03920040  RH  011%=      5-min Rain = 0
KPD3 212311Z 22011KT 39/04 A2971 RMK A01 T03920043  RH  012%=      5-min Rain = 0
KPD3 212312Z 23013KT 39/04 A2971 RMK A01 T03930043  RH  012%=      5-min Rain = 0
KPD3 212313Z 22015KT 39/04 A2971 RMK A01 T03920044  RH  012%=      5-min Rain = 0
KPD3 212314Z 22016KT 39/03 A2971 RMK A01 T03920033  RH  011%=      5-min Rain = 0
KPD3 212315Z 22010KT 39/04 A2971 RMK A01 T03910036  RH  011%=      5-min Rain = 0
KPD3 212316Z 22012KT 39/04 A2971 RMK A01 T03900041  RH  012%=      5-min Rain = 0
KPD3 212317Z 23010KT 39/05 A2971 RMK A01 T03920054  RH  013%=      5-min Rain = 0
KPD3 212318Z 24011KT 39/05 A2971 RMK A01 T03930051  RH  012%=      5-min Rain = 0
KPD3 212319Z 24011KT 39/04 A2971 RMK A01 T03930041  RH  012%=      5-min Rain = 0
KPD3 212320Z 22012KT 39/05 A2971 RMK A01 T03920051  RH  012%=      5-min Rain = 0
KPD3 212321Z 22013KT 39/04 A2971 RMK A01 T03920040  RH  011%=      5-min Rain = 0
KPD3 212322Z 23010G15KT 39/03 A2971 RMK A01 T03910034  RH  011%=      5-min Rain = 0
KPD3 212323Z 21009KT 39/05 A2971 RMK A01 T03900048  RH  012%=      5-min Rain = 0
KPD3 212324Z 22013KT 39/04 A2971 RMK A01 T03910043  RH  012%=      5-min Rain = 0
KPD3 212325Z 22013KT 39/04 A2971 RMK A01 T03910038  RH  011%=      5-min Rain = 0
KPD3 212326Z 23012G17KT 39/04 A2971 RMK A01 T03900043  RH  012%=      5-min Rain = 0
KPD3 212327Z 23014KT 39/05 A2971 RMK A01 T03900048  RH  012%=      5-min Rain = 0
KPD3 212328Z 22014KT 39/04 A2971 RMK A01 T03900039  RH  012%=      5-min Rain = 0
KPD3 212329Z 23013KT 39/05 A2971 RMK A01 T03900045  RH  012%=      5-min Rain = 0
KPD3 212330Z 22013KT 39/04 A2971 RMK A01 T03900039  RH  012%=      5-min Rain = 0
KPD3 212331Z 22014KT 39/04 A2971 RMK A01 T03900041  RH  012%=      5-min Rain = 0
KPD3 212332Z 22013KT 39/04 A297 RMK A01 T03900037  RH  011%=      5-min Rain = 0
KPD3 212333Z 19012KT 39/04 A297 RMK A01 T03900042  RH  012%=      5-min Rain = 0
KPD3 212334Z 20013KT 39/05 A297 RMK A01 T03900046  RH  012%=      5-min Rain = 0
KPD3 212335Z 21014KT 39/04 A297 RMK A01 T03900040  RH  012%=      5-min Rain = 0
KPD3 212336Z 23014KT 39/05 A297 RMK A01 T03900046  RH  012%=      5-min Rain = 0
KPD3 212337Z 22012KT 39/04 A297 RMK A01 T03900038  RH  011%=      5-min Rain = 0
KPD3 212338Z 20012KT 39/04 A297 RMK A01 T03900042  RH  012%=      5-min Rain = 0
KPD3 212339Z 20015KT 39/05 A297 RMK A01 T03900045  RH  012%=      5-min Rain = 0
KPD3 212340Z 20019KT 39/04 A297 RMK A01 T03900039  RH  012%=      5-min Rain = 0
KPD3 212341Z 20016KT 39/03 A297 RMK A01 T03890031  RH  011%=      5-min Rain = 0
KPD3 212342Z 20013KT 39/03 A297 RMK A01 T03890032  RH  011%=      5-min Rain = 0
KPD3 212343Z 20011KT 39/04 A297 RMK A01 T03890038  RH  012%=      5-min Rain = 0
KPD3 212344Z 21011KT 39/04 A297 RMK A01 T03890041  RH  012%=      5-min Rain = 0
KPD3 212345Z 21010KT 39/04 A297 RMK A01 T03880040  RH  012%=      5-min Rain = 0
KPD3 212346Z 21010KT 39/04 A297 RMK A01 T03890044  RH  012%=      5-min Rain = 0
KPD3 212347Z 20011KT 39/05 A297 RMK A01 T03890051  RH  013%=      5-min Rain = 0
KPD3 212348Z 20012KT 39/05 A297 RMK A01 T03890049  RH  012%=      5-min Rain = 0
KPD3 212349Z 20010KT 39/04 A297 RMK A01 T03890042  RH  012%=      5-min Rain = 0
KPD3 212350Z 20009KT 39/05 A297 RMK A01 T03890051  RH  013%=      5-min Rain = 0
KPD3 212351Z 20010KT 39/05 A297 RMK A01 T03890047  RH  012%=      5-min Rain = 0
KPD3 212352Z 21011KT 39/04 A297 RMK A01 T03890044  RH  012%=      5-min Rain = 0
KPD3 212353Z 22009KT 39/05 A297 RMK A01 T03890049  RH  013%=      5-min Rain = 0
KPD3 212354Z 21010KT 39/04 A297 RMK A01 T03890043  RH  012%=      5-min Rain = 0
KPD3 212355Z 21009KT 39/04 A297 RMK A01 T03880044  RH  012%=      5-min Rain = 0
KPD3 212356Z 22010KT 39/05 A297 RMK A01 T03870048  RH  012%=      5-min Rain = 0
KPD3 212357Z 22012KT 39/05 A297 RMK A01 T03870046  RH  012%=      5-min Rain = 0
KPD3 212358Z 21009KT 39/04 A297 RMK A01 T03870044  RH  012%=      5-min Rain = 0
KPD3 212359Z 21009KT 39/05 A297 RMK A01 T03870047  RH  012%=      5-min Rain = 0
KPD3 220000Z 22008KT 39/05 A297 RMK A01 T03870053  RH  013%=      5-min Rain = 0
KPD3 220001Z 20009KT 39/06 A297 RMK A01 T03870055  RH  013%=      5-min Rain = 0
KPD3 220002Z 20010KT 39/05 A297 RMK A01 T03870051  RH  013%=      5-min Rain = 0
KPD3 220003Z 20008KT 39/05 A297 RMK A01 T03860052  RH  013%=      5-min Rain = 0
KPD3 220004Z 21008KT 39/06 A297 RMK A01 T03860056  RH  013%=      5-min Rain = 0
KPD3 220005Z 22010KT 39/06 A297 RMK A01 T03860062  RH  014%=      5-min Rain = 0
KPD3 220006Z 22010KT 39/05 A297 RMK A01 T03860054  RH  013%=      5-min Rain = 0
KPD3 220007Z 22012KT 39/05 A297 RMK A01 T03850046  RH  012%=      5-min Rain = 0
KPD3 220008Z 22010KT 39/05 A297 RMK A01 T03850046  RH  012%=      5-min Rain = 0
KPD3 220009Z 22011KT 39/05 A297 RMK A01 T03850052  RH  013%=      5-min Rain = 0
KPD3 220010Z 21011KT 38/05 A297 RMK A01 T03840048  RH  013%=      5-min Rain = 0
KPD3 220011Z 21009KT 38/05 A297 RMK A01 T03840051  RH  013%=      5-min Rain = 0
KPD3 220012Z 21012KT 38/05 A297 RMK A01 T03840049  RH  013%=      5-min Rain = 0
KPD3 220013Z 23012KT 38/05 A297 RMK A01 T03840048  RH  013%=      5-min Rain = 0
KPD3 220014Z 23009KT 38/05 A297 RMK A01 T03840045  RH  013%=      5-min Rain = 0
KPD3 220015Z 22009KT 38/05 A297 RMK A01 T03830049  RH  013%=      5-min Rain = 0
KPD3 220016Z 21008KT 38/06 A297 RMK A01 T03830057  RH  014%=      5-min Rain = 0
KPD3 220017Z 21012KT 38/06 A297 RMK A01 T03820055  RH  014%=      5-min Rain = 0
KPD3 220018Z 23012KT 38/05 A297 RMK A01 T03810054  RH  013%=      5-min Rain = 0
KPD3 220019Z 23011KT 38/05 A297 RMK A01 T03810051  RH  013%=      5-min Rain = 0
KPD3 220020Z 23008KT 38/04 A297 RMK A01 T03810043  RH  012%=      5-min Rain = 0
KPD3 220021Z 23010KT 38/05 A297 RMK A01 T03810046  RH  013%=      5-min Rain = 0
KPD3 220022Z 23007KT 38/03 A297 RMK A01 T03820032  RH  012%=      5-min Rain = 0
KPD3 220023Z 24007KT 38/05 A297 RMK A01 T03820048  RH  013%=      5-min Rain = 0
KPD3 220024Z 23007KT 38/06 A297 RMK A01 T03810056  RH  014%=      5-min Rain = 0
KPD3 220025Z 23008KT 38/05 A297 RMK A01 T03800053  RH  013%=      5-min Rain = 0
KPD3 220026Z 24007KT 38/05 A297 RMK A01 T03800054  RH  014%=      5-min Rain = 0
KPD3 220027Z 24012KT 38/05 A297 RMK A01 T03790054  RH  014%=      5-min Rain = 0
KPD3 220028Z 22009KT 38/05 A297 RMK A01 T03790046  RH  013%=      5-min Rain = 0
KPD3 220029Z 21007KT 38/06 A297 RMK A01 T03780063  RH  015%=      5-min Rain = 0
KPD3 220030Z 22008KT 38/06 A297 RMK A01 T03760063  RH  015%=      5-min Rain = 0
KPD3 220031Z 22007KT 38/06 A297 RMK A01 T03760060  RH  014%=      5-min Rain = 0
KPD3 220032Z 22007KT 38/06 A297 RMK A01 T03750063  RH  015%=      5-min Rain = 0
KPD3 220033Z 21008KT 38/07 A297 RMK A01 T03750066  RH  015%=      5-min Rain = 0
KPD3 220034Z 21007KT 37/06 A297 RMK A01 T03740064  RH  015%=      5-min Rain = 0
KPD3 220035Z 21007KT 37/06 A297 RMK A01 T03740063  RH  015%=      5-min Rain = 0
KPD3 220036Z 21007KT 37/07 A297 RMK A01 T03730066  RH  015%=      5-min Rain = 0
KPD3 220037Z 21006KT 37/07 A297 RMK A01 T03720070  RH  016%=      5-min Rain = 0
KPD3 220038Z 20006KT 37/07 A297 RMK A01 T03710072  RH  016%=      5-min Rain = 0
KPD3 220039Z 20006KT 37/08 A297 RMK A01 T03700075  RH  017%=      5-min Rain = 0
KPD3 220040Z 19005KT 37/08 A297 RMK A01 T03690077  RH  017%=      5-min Rain = 0
KPD3 220041Z 20005KT 37/09 A297 RMK A01 T03680086  RH  018%=      5-min Rain = 0
KPD3 220042Z 21005KT 37/09 A297 RMK A01 T03670092  RH  019%=      5-min Rain = 0
KPD3 220043Z 20005KT 37/09 A297 RMK A01 T03650089  RH  019%=      5-min Rain = 0
KPD3 220044Z 20005KT 36/09 A297 RMK A01 T03640087  RH  018%=      5-min Rain = 0
KPD3 220045Z 20005KT 36/09 A297 RMK A01 T03640085  RH  018%=      5-min Rain = 0
KPD3 220046Z 21006KT 36/09 A297 RMK A01 T03630089  RH  019%=      5-min Rain = 0
KPD3 220047Z 20005KT 36/09 A297 RMK A01 T03630089  RH  019%=      5-min Rain = 0
KPD3 220048Z 20005KT 36/09 A297 RMK A01 T03610091  RH  019%=      5-min Rain = 0
KPD3 220049Z 20006KT 36/09 A297 RMK A01 T03600091  RH  019%=      5-min Rain = 0
KPD3 220050Z 20007KT 36/08 A297 RMK A01 T03590083  RH  018%=      5-min Rain = 0
KPD3 220051Z 19007KT 36/08 A297 RMK A01 T03590077  RH  018%=      5-min Rain = 0
KPD3 220052Z 20008KT 36/08 A297 RMK A01 T03590080  RH  018%=      5-min Rain = 0
KPD3 220053Z 20007KT 36/07 A297 RMK A01 T03590072  RH  017%=      5-min Rain = 0
KPD3 220054Z 19007KT 36/07 A297 RMK A01 T03600074  RH  017%=      5-min Rain = 0
KPD3 220055Z 19006KT 36/08 A297 RMK A01 T03600076  RH  018%=      5-min Rain = 0
KPD3 220056Z 18007KT 36/08 A297 RMK A01 T03590080  RH  018%=      5-min Rain = 0
KPD3 220057Z 19008KT 36/08 A297 RMK A01 T03580075  RH  018%=      5-min Rain = 0
KPD3 220058Z 18007KT 36/08 A297 RMK A01 T03580076  RH  018%=      5-min Rain = 0
KPD3 220059Z 18006KT 36/08 A297 RMK A01 T03560083  RH  019%=      5-min Rain = 0
KPD3 220100Z 18006KT 35/09 A297 RMK A01 T03540093  RH  020%=      5-min Rain = 0
KPD3 220101Z 18007KT 35/10 A297 RMK A01 T03510096  RH  021%=      5-min Rain = 0
KPD3 220102Z 17006KT 35/10 A297 RMK A01 T03480098  RH  022%=      5-min Rain = 0
KPD3 220103Z 16005KT 35/10 A297 RMK A01 T03450102  RH  023%=      5-min Rain = 0
KPD3 220104Z 16005KT 34/11 A297 RMK A01 T03430107  RH  024%=      5-min Rain = 0
KPD3 220105Z 17006KT 34/11 A297 RMK A01 T03400111  RH  025%=      5-min Rain = 0
KPD3 220106Z 17007KT 34/12 A297 RMK A01 T03380116  RH  026%=      5-min Rain = 0
KPD3 220107Z 17006KT 34/12 A297 RMK A01 T03350122  RH  028%=      5-min Rain = 0
KPD3 220108Z 17004KT 33/12 A297 RMK A01 T03320123  RH  028%=      5-min Rain = 0
KPD3 220109Z 17006KT 33/12 A297 RMK A01 T03290118  RH  028%=      5-min Rain = 0
KPD3 220110Z 17006KT 33/12 A297 RMK A01 T03280118  RH  028%=      5-min Rain = 0
KPD3 220111Z 17005KT 33/12 A297 RMK A01 T03270120  RH  028%=      5-min Rain = 0
KPD3 220112Z 18005KT 33/12 A297 RMK A01 T03270118  RH  028%=      5-min Rain = 0
KPD3 220113Z 19005KT 33/12 A297 RMK A01 T03260118  RH  028%=      5-min Rain = 0
KPD3 220114Z 18005KT 33/12 A297 RMK A01 T03250119  RH  028%=      5-min Rain = 0
KPD3 220115Z 18005KT 33/12 A297 RMK A01 T03250122  RH  029%=      5-min Rain = 0
KPD3 220116Z 18007KT 32/12 A297 RMK A01 T03240119  RH  029%=      5-min Rain = 0
KPD3 220117Z 18006KT 32/12 A297 RMK A01 T03240120  RH  029%=      5-min Rain = 0
KPD3 220118Z 18005KT 32/12 A297 RMK A01 T03230122  RH  029%=      5-min Rain = 0
KPD3 220119Z 18005KT 32/12 A297 RMK A01 T03220120  RH  029%=      5-min Rain = 0
KPD3 220120Z 18006KT 32/12 A297 RMK A01 T03200118  RH  029%=      5-min Rain = 0
KPD3 220121Z 17006KT 32/12 A297 RMK A01 T03200120  RH  030%=      5-min Rain = 0
KPD3 220122Z 17007KT 32/12 A297 RMK A01 T03180123  RH  030%=      5-min Rain = 0
KPD3 220123Z 18007KT 32/12 A297 RMK A01 T03150122  RH  031%=      5-min Rain = 0
KPD3 220124Z 18006KT 31/12 A297 RMK A01 T03130120  RH  031%=      5-min Rain = 0
KPD3 220125Z 17006KT 31/12 A297 RMK A01 T03120120  RH  031%=      5-min Rain = 0
KPD3 220126Z 17007KT 31/12 A297 RMK A01 T03100120  RH  031%=      5-min Rain = 0
KPD3 220127Z 17007KT 31/12 A297 RMK A01 T03080120  RH  031%=      5-min Rain = 0
KPD3 220128Z 17007KT 31/12 A297 RMK A01 T03070120  RH  032%=      5-min Rain = 0
KPD3 220129Z 18007KT 31/12 A297 RMK A01 T03050121  RH  032%=      5-min Rain = 0
KPD3 220130Z 18006KT 30/12 A297 RMK A01 T03040122  RH  033%=      5-min Rain = 0
KPD3 220131Z 18006KT 30/12 A297 RMK A01 T03020123  RH  033%=      5-min Rain = 0
KPD3 220132Z 18006KT 30/12 A297 RMK A01 T03000119  RH  033%=      5-min Rain = 0
KPD3 220133Z 18005KT 30/12 A297 RMK A01 T03000117  RH  032%=      5-min Rain = 0
KPD3 220134Z 18005KT 30/12 A297 RMK A01 T03000117  RH  032%=      5-min Rain = 0
KPD3 220135Z 18006KT 30/11 A297 RMK A01 T03000114  RH  032%=      5-min Rain = 0
KPD3 220136Z 17007KT 30/11 A297 RMK A01 T03020112  RH  031%=      5-min Rain = 0
KPD3 220137Z 18007KT 30/11 A297 RMK A01 T03030112  RH  031%=      5-min Rain = 0
KPD3 220138Z 18007KT 30/11 A297 RMK A01 T03030110  RH  031%=      5-min Rain = 0
KPD3 220139Z 18007KT 30/11 A297 RMK A01 T03030111  RH  031%=      5-min Rain = 0
KPD3 220140Z 17007KT 30/11 A297 RMK A01 T03020112  RH  031%=      5-min Rain = 0
KPD3 220141Z 17007KT 30/11 A297 RMK A01 T03000112  RH  031%=      5-min Rain = 0
KPD3 220142Z 18006KT 30/11 A297 RMK A01 T02970113  RH  032%=      5-min Rain = 0
KPD3 220143Z 17006KT 29/11 A297 RMK A01 T02940111  RH  032%=      5-min Rain = 0
KPD3 220144Z 17007KT 29/11 A297 RMK A01 T02920108  RH  032%=      5-min Rain = 0
KPD3 220145Z 18006KT 29/11 A297 RMK A01 T02920109  RH  032%=      5-min Rain = 0
KPD3 220146Z 18005KT 29/11 A297 RMK A01 T02910113  RH  033%=      5-min Rain = 0
KPD3 220147Z 18006KT 29/11 A297 RMK A01 T02880113  RH  034%=      5-min Rain = 0
KPD3 220148Z 18007KT 29/11 A297 RMK A01 T02880110  RH  033%=      5-min Rain = 0
KPD3 220149Z 18007KT 29/11 A297 RMK A01 T02880109  RH  033%=      5-min Rain = 0
KPD3 220150Z 18007KT 29/11 A297 RMK A01 T02890108  RH  033%=      5-min Rain = 0
KPD3 220151Z 18007KT 29/11 A297 RMK A01 T02900108  RH  032%=      5-min Rain = 0
KPD3 220152Z 18006KT 29/11 A2969 RMK A01 T02900108  RH  032%=      5-min Rain = 0
KPD3 220153Z 18006KT 29/11 A2969 RMK A01 T02910110  RH  033%=      5-min Rain = 0
KPD3 220154Z 17006KT 29/11 A2969 RMK A01 T02900110  RH  033%=      5-min Rain = 0
KPD3 220155Z 17005KT 29/11 A2969 RMK A01 T02890113  RH  034%=      5-min Rain = 0
KPD3 220156Z 17005KT 29/11 A2969 RMK A01 T02870112  RH  034%=      5-min Rain = 0
KPD3 220157Z 17006KT 29/11 A2969 RMK A01 T02850109  RH  033%=      5-min Rain = 0
KPD3 220158Z 17005KT 29/11 A2969 RMK A01 T02850107  RH  033%=      5-min Rain = 0
KPD3 220159Z 17005KT 29/11 A2969 RMK A01 T02850108  RH  033%=      5-min Rain = 0
KPD3 220200Z 16006KT 29/11 A297 RMK A01 T02850107  RH  033%=      5-min Rain = 0
KPD3 220201Z 16006KT 29/11 A297 RMK A01 T02850109  RH  033%=      5-min Rain = 0
KPD3 220202Z 16006KT 28/11 A297 RMK A01 T02840108  RH  033%=      5-min Rain = 0
KPD3 220203Z 14007KT 28/11 A297 RMK A01 T02830109  RH  034%=      5-min Rain = 0
KPD3 220204Z 13007KT 28/12 A297 RMK A01 T02780118  RH  037%=      5-min Rain = 0
KPD3 220205Z 14006KT 27/12 A297 RMK A01 T02680119  RH  039%=      5-min Rain = 0
KPD3 220206Z 14007KT 26/12 A2971 RMK A01 T02610120  RH  041%=      5-min Rain = 0
KPD3 220207Z 16007KT 26/12 A2971 RMK A01 T02570115  RH  041%=      5-min Rain = 0
KPD3 220208Z 16009KT 26/11 A2971 RMK A01 T02550108  RH  040%=      5-min Rain = 0
KPD3 220209Z 16010KT 26/11 A2971 RMK A01 T02600106  RH  038%=      5-min Rain = 0
KPD3 220210Z 17009KT 27/11 A2971 RMK A01 T02690112  RH  038%=      5-min Rain = 0
KPD3 220211Z 17011KT 28/12 A2971 RMK A01 T02760119  RH  038%=      5-min Rain = 0
KPD3 220212Z 17012KT 28/13 A297 RMK A01 T02840127  RH  038%=      5-min Rain = 0
KPD3 220213Z 16013KT 29/13 A2971 RMK A01 T02920131  RH  037%=      5-min Rain = 0
KPD3 220214Z 16014KT 30/14 A2971 RMK A01 T02960136  RH  038%=      5-min Rain = 0
KPD3 220215Z 16015KT 30/15 A2971 RMK A01 T02980148  RH  040%=      5-min Rain = 0
KPD3 220216Z 16015KT 30/16 A2971 RMK A01 T03040159  RH  042%=      5-min Rain = 0
KPD3 220217Z 16013KT 31/16 A2971 RMK A01 T03080161  RH  041%=      5-min Rain = 0
KPD3 220218Z 15016KT 31/16 A2971 RMK A01 T03100161  RH  041%=      5-min Rain = 0
KPD3 220219Z 16015KT 31/16 A2971 RMK A01 T03110161  RH  041%=      5-min Rain = 0
KPD3 220220Z 16015KT 31/16 A2971 RMK A01 T03110162  RH  041%=      5-min Rain = 0
KPD3 220221Z 16015KT 31/16 A2971 RMK A01 T03110163  RH  041%=      5-min Rain = 0
KPD3 220222Z 16013KT 31/16 A2971 RMK A01 T03120163  RH  041%=      5-min Rain = 0
KPD3 220223Z 16011KT 31/16 A2971 RMK A01 T03130163  RH  041%=      5-min Rain = 0
KPD3 220224Z 17011KT 31/16 A2971 RMK A01 T03130164  RH  041%=      5-min Rain = 0
KPD3 220225Z 16011KT 31/16 A2971 RMK A01 T03110164  RH  041%=      5-min Rain = 0
KPD3 220226Z 16011KT 31/16 A2971 RMK A01 T03110163  RH  041%=      5-min Rain = 0
KPD3 220227Z 17012KT 31/16 A2971 RMK A01 T03100162  RH  041%=      5-min Rain = 0
KPD3 220228Z 17012KT 31/16 A2971 RMK A01 T03110162  RH  040%=      5-min Rain = 0
KPD3 220229Z 17011KT 31/16 A2971 RMK A01 T03120161  RH  040%=      5-min Rain = 0
KPD3 220230Z 17012KT 31/16 A2972 RMK A01 T03110161  RH  040%=      5-min Rain = 0
KPD3 220231Z 17014KT 31/16 A2972 RMK A01 T03100161  RH  041%=      5-min Rain = 0
KPD3 220232Z 16012KT 31/16 A2972 RMK A01 T03090160  RH  041%=      5-min Rain = 0
KPD3 220233Z 17013KT 31/16 A2972 RMK A01 T03100160  RH  041%=      5-min Rain = 0
KPD3 220234Z 17012KT 31/16 A2972 RMK A01 T03100160  RH  040%=      5-min Rain = 0
KPD3 220235Z 16012KT 31/16 A2972 RMK A01 T03100160  RH  040%=      5-min Rain = 0
KPD3 220236Z 16012KT 31/16 A2972 RMK A01 T03090160  RH  041%=      5-min Rain = 0
KPD3 220237Z 16012KT 31/16 A2972 RMK A01 T03090160  RH  041%=      5-min Rain = 0
KPD3 220238Z 16011KT 31/16 A2972 RMK A01 T03080160  RH  041%=      5-min Rain = 0
KPD3 220239Z 17012KT 31/16 A2972 RMK A01 T03070160  RH  041%=      5-min Rain = 0
KPD3 220240Z 16011KT 31/16 A2972 RMK A01 T03070159  RH  041%=      5-min Rain = 0
KPD3 220241Z 16010KT 31/16 A2972 RMK A01 T03060159  RH  041%=      5-min Rain = 0
KPD3 220242Z 17011KT 30/16 A2972 RMK A01 T03040159  RH  041%=      5-min Rain = 0
KPD3 220243Z 17011KT 30/16 A2973 RMK A01 T03040159  RH  042%=      5-min Rain = 0
KPD3 220244Z 17011KT 30/16 A2973 RMK A01 T03030158  RH  042%=      5-min Rain = 0
KPD3 220245Z 17011KT 30/16 A2973 RMK A01 T03020157  RH  041%=      5-min Rain = 0
KPD3 220246Z 17011KT 30/16 A2973 RMK A01 T03020157  RH  041%=      5-min Rain = 0
KPD3 220247Z 17010KT 30/16 A2973 RMK A01 T03030156  RH  041%=      5-min Rain = 0
KPD3 220248Z 17010KT 30/16 A2973 RMK A01 T03020156  RH  041%=      5-min Rain = 0
KPD3 220249Z 17010KT 30/16 A2973 RMK A01 T03000156  RH  042%=      5-min Rain = 0
KPD3 220250Z 17010KT 30/15 A2973 RMK A01 T02980154  RH  042%=      5-min Rain = 0
KPD3 220251Z 17010KT 30/15 A2973 RMK A01 T02980154  RH  042%=      5-min Rain = 0
KPD3 220252Z 17009KT 30/15 A2973 RMK A01 T02980153  RH  042%=      5-min Rain = 0
KPD3 220253Z 17009KT 30/15 A2973 RMK A01 T02960153  RH  042%=      5-min Rain = 0
KPD3 220254Z 17009KT 30/15 A2973 RMK A01 T02950152  RH  042%=      5-min Rain = 0
KPD3 220255Z 17009KT 29/15 A2973 RMK A01 T02940151  RH  042%=      5-min Rain = 0
KPD3 220256Z 17010KT 29/15 A2973 RMK A01 T02930150  RH  042%=      5-min Rain = 0
KPD3 220257Z 17009KT 29/15 A2974 RMK A01 T02920147  RH  041%=      5-min Rain = 0
KPD3 220258Z 18011KT 29/14 A2974 RMK A01 T02930144  RH  040%=      5-min Rain = 0
KPD3 220259Z 18011KT 30/14 A2974 RMK A01 T02950142  RH  039%=      5-min Rain = 0
KPD3 220300Z 17011KT 30/14 A2974 RMK A01 T02970141  RH  038%=      5-min Rain = 0
KPD3 220301Z 17010KT 30/14 A2974 RMK A01 T02980140  RH  038%=      5-min Rain = 0
KPD3 220302Z 17010KT 30/14 A2974 RMK A01 T02980139  RH  038%=      5-min Rain = 0
KPD3 220303Z 18010KT 30/14 A2974 RMK A01 T02980139  RH  038%=      5-min Rain = 0
KPD3 220304Z 18010KT 30/14 A2974 RMK A01 T02980137  RH  037%=      5-min Rain = 0
KPD3 220305Z 18011KT 30/14 A2974 RMK A01 T02980136  RH  037%=      5-min Rain = 0
KPD3 220306Z 17011KT 30/14 A2975 RMK A01 T02980135  RH  037%=      5-min Rain = 0
KPD3 220307Z 18011KT 30/13 A2975 RMK A01 T02980133  RH  036%=      5-min Rain = 0
KPD3 220308Z 18014KT 30/13 A2975 RMK A01 T03000132  RH  036%=      5-min Rain = 0
KPD3 220309Z 18012KT 30/13 A2975 RMK A01 T03020131  RH  035%=      5-min Rain = 0
KPD3 220310Z 18013KT 30/13 A2975 RMK A01 T03020130  RH  035%=      5-min Rain = 0
KPD3 220311Z 17015KT 30/13 A2975 RMK A01 T03020129  RH  034%=      5-min Rain = 0
KPD3 220312Z 18017KT 30/13 A2976 RMK A01 T03040128  RH  034%=      5-min Rain = 0
KPD3 220313Z 17017KT 31/13 A2976 RMK A01 T03070128  RH  034%=      5-min Rain = 0
KPD3 220314Z 18016G22KT 31/13 A2976 RMK A01 T03100129  RH  033%=      5-min Rain = 0
KPD3 220315Z 18014KT 31/13 A2976 RMK A01 T03100129  RH  033%=      5-min Rain = 0
KPD3 220316Z 17018G24KT 31/13 A2976 RMK A01 T03100130  RH  033%=      5-min Rain = 0
KPD3 220317Z 17020KT 31/13 A2976 RMK A01 T03110131  RH  033%=      5-min Rain = 0
KPD3 220318Z 17019G24KT 31/13 A2976 RMK A01 T03130133  RH  033%=      5-min Rain = 0
KPD3 220319Z 17018G23KT 31/14 A2976 RMK A01 T03130135  RH  034%=      5-min Rain = 0
KPD3 220320Z 17020KT 31/14 A2975 RMK A01 T03140137  RH  034%=      5-min Rain = 0
KPD3 220321Z 18018KT 31/14 A2976 RMK A01 T03140139  RH  034%=      5-min Rain = 0
KPD3 220322Z 18017KT 31/14 A2976 RMK A01 T03140140  RH  035%=      5-min Rain = 0
KPD3 220323Z 17015G22KT 31/14 A2976 RMK A01 T03130140  RH  035%=      5-min Rain = 0
KPD3 220324Z 17017KT 31/14 A2976 RMK A01 T03120143  RH  036%=      5-min Rain = 0
KPD3 220325Z 17016KT 31/14 A2976 RMK A01 T03120144  RH  036%=      5-min Rain = 0
KPD3 220326Z 17016KT 31/14 A2977 RMK A01 T03110144  RH  036%=      5-min Rain = 0
KPD3 220327Z 18016KT 31/15 A2977 RMK A01 T03100145  RH  037%=      5-min Rain = 0
KPD3 220328Z 17017G24KT 31/15 A2977 RMK A01 T03090148  RH  037%=      5-min Rain = 0
KPD3 220329Z 17022G29KT 31/15 A2977 RMK A01 T03090149  RH  038%=      5-min Rain = 0
KPD3 220330Z 17023G29KT 31/15 A2977 RMK A01 T03090151  RH  038%=      5-min Rain = 0
KPD3 220331Z 17020KT 31/15 A2977 RMK A01 T03110152  RH  038%=      5-min Rain = 0
KPD3 220332Z 18021G26KT 31/15 A2977 RMK A01 T03110152  RH  038%=      5-min Rain = 0
KPD3 220333Z 18024G29KT 31/15 A2977 RMK A01 T03100153  RH  039%=      5-min Rain = 0
KPD3 220334Z 18025G30KT 31/15 A2977 RMK A01 T03100154  RH  039%=      5-min Rain = 0
KPD3 220335Z 18023KT 31/16 A2978 RMK A01 T03100155  RH  039%=      5-min Rain = 0
KPD3 220336Z 18020KT 31/16 A2978 RMK A01 T03100156  RH  040%=      5-min Rain = 0
KPD3 220337Z 17018KT 31/16 A2978 RMK A01 T03090156  RH  040%=      5-min Rain = 0
KPD3 220338Z 17018G25KT 31/16 A2978 RMK A01 T03080156  RH  040%=      5-min Rain = 0
KPD3 220339Z 18024G33KT 31/16 A2978 RMK A01 T03070158  RH  041%=      5-min Rain = 0
KPD3 220340Z 18029KT 31/16 A2978 RMK A01 T03060163  RH  042%=      5-min Rain = 0
KPD3 220341Z 19025G32KT 31/16 A2978 RMK A01 T03070163  RH  042%=      5-min Rain = 0
KPD3 220342Z 19024G29KT 31/17 A2978 RMK A01 T03070167  RH  043%=      5-min Rain = 0
KPD3 220343Z 18026G33KT 31/17 A2978 RMK A01 T03050170  RH  044%=      5-min Rain = 0
KPD3 220344Z 18024G29KT 30/17 A2978 RMK A01 T03030174  RH  046%=      5-min Rain = 0
KPD3 220345Z 19023KT 30/18 A2978 RMK A01 T03020175  RH  047%=      5-min Rain = 0
KPD3 220346Z 19022KT 30/18 A2978 RMK A01 T03010176  RH  047%=      5-min Rain = 0
KPD3 220347Z 18019KT 30/18 A2979 RMK A01 T03000176  RH  047%=      5-min Rain = 0
KPD3 220348Z 18018KT 30/18 A2979 RMK A01 T02990175  RH  047%=      5-min Rain = 0
KPD3 220349Z 18017KT 30/18 A2978 RMK A01 T02980175  RH  048%=      5-min Rain = 0
KPD3 220350Z 18017KT 30/17 A2978 RMK A01 T02970174  RH  047%=      5-min Rain = 0
KPD3 220351Z 18015KT 30/17 A2979 RMK A01 T02970174  RH  047%=      5-min Rain = 0
KPD3 220352Z 17014KT 30/17 A2979 RMK A01 T02960173  RH  048%=      5-min Rain = 0
KPD3 220353Z 17018KT 30/17 A2979 RMK A01 T02960172  RH  047%=      5-min Rain = 0
KPD3 220354Z 17020G25KT 30/17 A2979 RMK A01 T02960170  RH  047%=      5-min Rain = 0
KPD3 220355Z 17020KT 30/17 A2979 RMK A01 T02970169  RH  046%=      5-min Rain = 0
KPD3 220356Z 17017KT 30/17 A2979 RMK A01 T02980170  RH  046%=      5-min Rain = 0
KPD3 220357Z 17018KT 30/17 A2979 RMK A01 T02980170  RH  046%=      5-min Rain = 0
KPD3 220358Z 17015KT 30/17 A2979 RMK A01 T02970170  RH  046%=      5-min Rain = 0
KPD3 220359Z 17016KT 30/17 A2979 RMK A01 T02960170  RH  047%=      5-min Rain = 0
KPD3 220400Z 17017KT 30/17 A2979 RMK A01 T02950170  RH  047%=      5-min Rain = 0
KPD3 220401Z 17014KT 30/17 A2979 RMK A01 T02950171  RH  047%=      5-min Rain = 0
KPD3 220402Z 17015KT 29/17 A2979 RMK A01 T02940172  RH  048%=      5-min Rain = 0
KPD3 220403Z 16017KT 29/17 A2979 RMK A01 T02930172  RH  048%=      5-min Rain = 0
KPD3 220404Z 17017KT 29/17 A2979 RMK A01 T02920172  RH  048%=      5-min Rain = 0
KPD3 220405Z 16016KT 29/17 A2979 RMK A01 T02910171  RH  048%=      5-min Rain = 0
KPD3 220406Z 16015KT 29/17 A2979 RMK A01 T02900171  RH  049%=      5-min Rain = 0
KPD3 220407Z 16014KT 29/17 A2979 RMK A01 T02890171  RH  049%=      5-min Rain = 0
KPD3 220408Z 16017KT 29/17 A2979 RMK A01 T02870169  RH  049%=      5-min Rain = 0
KPD3 220409Z 17016KT 29/17 A2979 RMK A01 T02870169  RH  049%=      5-min Rain = 0
KPD3 220410Z 16014KT 29/17 A2979 RMK A01 T02870168  RH  049%=      5-min Rain = 0
KPD3 220411Z 17014KT 29/17 A2979 RMK A01 T02860168  RH  049%=      5-min Rain = 0
KPD3 220412Z 16015KT 29/17 A2979 RMK A01 T02850165  RH  048%=      5-min Rain = 0
KPD3 220413Z 16013G19KT 29/17 A2979 RMK A01 T02850166  RH  048%=      5-min Rain = 0
KPD3 220414Z 16015KT 28/17 A2979 RMK A01 T02840165  RH  048%=      5-min Rain = 0
KPD3 220415Z 16014KT 28/16 A2979 RMK A01 T02840164  RH  048%=      5-min Rain = 0
KPD3 220416Z 16016KT 28/16 A2979 RMK A01 T02830163  RH  048%=      5-min Rain = 0
KPD3 220417Z 16015KT 28/16 A2979 RMK A01 T02830163  RH  048%=      5-min Rain = 0
KPD3 220418Z 16015KT 28/16 A2979 RMK A01 T02830164  RH  048%=      5-min Rain = 0
KPD3 220419Z 17018KT 28/16 A2979 RMK A01 T02820164  RH  049%=      5-min Rain = 0
KPD3 220420Z 16015KT 28/16 A2979 RMK A01 T02820163  RH  048%=      5-min Rain = 0
KPD3 220421Z 17013KT 28/16 A2979 RMK A01 T02820164  RH  049%=      5-min Rain = 0
KPD3 220422Z 17015KT 28/16 A2979 RMK A01 T02800163  RH  049%=      5-min Rain = 0
KPD3 220423Z 17014KT 28/16 A2979 RMK A01 T02790164  RH  049%=      5-min Rain = 0
KPD3 220424Z 17014KT 28/16 A2979 RMK A01 T02790163  RH  049%=      5-min Rain = 0
KPD3 220425Z 17013KT 28/16 A2979 RMK A01 T02780163  RH  049%=      5-min Rain = 0
KPD3 220426Z 18014KT 28/16 A2979 RMK A01 T02780162  RH  049%=      5-min Rain = 0
KPD3 220427Z 17016KT 28/16 A2979 RMK A01 T02770160  RH  049%=      5-min Rain = 0
KPD3 220428Z 17013KT 28/16 A2979 RMK A01 T02770161  RH  049%=      5-min Rain = 0
KPD3 220429Z 18013KT 28/16 A2979 RMK A01 T02770161  RH  049%=      5-min Rain = 0
KPD3 220430Z 17014KT 28/16 A2979 RMK A01 T02770160  RH  049%=      5-min Rain = 0
KPD3 220431Z 18014KT 28/16 A2979 RMK A01 T02760159  RH  049%=      5-min Rain = 0
KPD3 220432Z 18012KT 28/16 A2979 RMK A01 T02750159  RH  049%=      5-min Rain = 0
KPD3 220433Z 18012KT 28/16 A2979 RMK A01 T02750159  RH  049%=      5-min Rain = 0
KPD3 220434Z 19011KT 27/16 A2979 RMK A01 T02740159  RH  049%=      5-min Rain = 0
KPD3 220435Z 18011G16KT 27/16 A298 RMK A01 T02730159  RH  050%=      5-min Rain = 0
KPD3 220436Z 18013KT 27/16 A298 RMK A01 T02720158  RH  050%=      5-min Rain = 0
KPD3 220437Z 18013KT 27/16 A298 RMK A01 T02710157  RH  050%=      5-min Rain = 0
KPD3 220438Z 18014KT 27/16 A298 RMK A01 T02710157  RH  050%=      5-min Rain = 0
KPD3 220439Z 18013G19KT 27/16 A298 RMK A01 T02710156  RH  049%=      5-min Rain = 0
KPD3 220440Z 18013KT 27/16 A298 RMK A01 T02720156  RH  049%=      5-min Rain = 0
KPD3 220441Z 18013KT 27/16 A298 RMK A01 T02730156  RH  049%=      5-min Rain = 0
KPD3 220442Z 18013KT 27/16 A298 RMK A01 T02730156  RH  049%=      5-min Rain = 0
KPD3 220443Z 18013KT 27/16 A298 RMK A01 T02730156  RH  049%=      5-min Rain = 0
KPD3 220444Z 18013KT 27/16 A298 RMK A01 T02730155  RH  049%=      5-min Rain = 0
KPD3 220445Z 17013KT 27/16 A298 RMK A01 T02730155  RH  048%=      5-min Rain = 0
KPD3 220446Z 17014KT 27/16 A298 RMK A01 T02730155  RH  048%=      5-min Rain = 0
KPD3 220447Z 17013KT 27/16 A298 RMK A01 T02730155  RH  048%=      5-min Rain = 0
KPD3 220448Z 17014KT 27/15 A298 RMK A01 T02730154  RH  048%=      5-min Rain = 0
KPD3 220449Z 17015KT 27/15 A2979 RMK A01 T02730154  RH  048%=      5-min Rain = 0
KPD3 220450Z 17015KT 27/15 A298 RMK A01 T02730154  RH  048%=      5-min Rain = 0
KPD3 220451Z 17014KT 27/15 A298 RMK A01 T02730154  RH  048%=      5-min Rain = 0
KPD3 220452Z 17015KT 27/15 A298 RMK A01 T02740154  RH  048%=      5-min Rain = 0
KPD3 220453Z 17014KT 27/15 A2979 RMK A01 T02730154  RH  048%=      5-min Rain = 0
KPD3 220454Z 17015KT 27/15 A2979 RMK A01 T02730154  RH  048%=      5-min Rain = 0
KPD3 220455Z 17015KT 27/15 A2979 RMK A01 T02730153  RH  048%=      5-min Rain = 0
KPD3 220456Z 17014KT 27/15 A2979 RMK A01 T02730154  RH  048%=      5-min Rain = 0
KPD3 220457Z 17013KT 27/15 A2979 RMK A01 T02730154  RH  048%=      5-min Rain = 0
KPD3 220458Z 17012KT 27/15 A2979 RMK A01 T02710154  RH  049%=      5-min Rain = 0
KPD3 220459Z 17012KT 27/15 A2979 RMK A01 T02700154  RH  049%=      5-min Rain = 0

Page generated in 0.1294 seconds.